Eltham High School

Historical Weather Data

                  Temp     Hi    Low   Out         Wind        Wind    Hi    Hi   Wind   Heat          THSW                Rain  Solar   Solar Hi Solar         UV    Hi     Heat    Cool    In     In          Wind  Wind    ISS   Arc.
  Date    Time     Out   Temp   Temp   Hum    Dew Speed   Dir   Run Speed   Dir  Chill  Index    THW  Index   Bar    Rain  Rate   Rad.  Energy    Rad.    UV   Dose   UV     D-D     D-D    Temp   Hum     ET   Samp   Tx   Recept  Int.
------------------------------------------------------------------------------------------------------------------------------------------------------------------------------------------------------------------------------------------
17/10/19 12:30a   10.3   10.7   10.3    95    9.6   0.0   ---  0.00   0.0   ---   10.3   10.6   10.6    9.1  1021.0  0.00   0.0     0     0.00      0     0.0  0.00   0.0   0.167   0.000   27.3    37    0.00   701    1    100.0   30 
17/10/19  1:00a    9.9   10.3    9.9    95    9.2   0.0   ---  0.00   0.0   ---    9.9   10.2   10.2    8.8  1020.3  0.00   0.0     0     0.00      0     0.0  0.00   0.0   0.175   0.000   27.2    37    0.00   677    1     99.0   30 
17/10/19  1:30a    9.4    9.9    9.4    95    8.6   0.0   ---  0.00   0.0   ---    9.4    9.7    9.7    8.2  1019.9  0.00   0.0     0     0.00      0     0.0  0.00   0.0   0.186   0.000   27.0    37    0.00   703    1    100.0   30 
17/10/19  2:00a    8.6    9.4    8.6    95    7.8   0.0   ---  0.00   0.0   ---    8.6    8.7    8.7    7.2  1020.0  0.00   0.0     0     0.00      0     0.0  0.00   0.0   0.204   0.000   26.9    37    0.00   664    1     97.1   30 
17/10/19  2:30a    8.4    8.6    8.1    96    7.8   0.0   ---  0.00   0.0   ---    8.4    8.7    8.7    7.2  1019.9  0.00   0.0     0     0.00      0     0.0  0.00   0.0   0.206   0.000   26.7    37    0.00   700    1    100.0   30 
17/10/19  3:00a    9.5    9.5    8.4    97    9.0   0.0   ---  0.00   0.0   ---    9.5    9.8    9.8    8.3  1020.0  0.00   0.0     0     0.00      0     0.0  0.00   0.0   0.184   0.000   26.5    37    0.00   677    1     99.0   30 
17/10/19  3:30a    9.4    9.8    9.4    96    8.8   0.0   ---  0.00   0.0   ---    9.4    9.7    9.7    8.3  1020.0  0.00   0.0     0     0.00      0     0.0  0.00   0.0   0.185   0.000   26.4    36    0.00   698    1    100.0   30 
17/10/19  4:00a    9.4    9.4    9.3    96    8.8   0.0   ---  0.00   0.0   ---    9.4    9.7    9.7    8.2  1019.9  0.51   0.0     0     0.00      0     0.0  0.00   0.0   0.186   0.000   26.4    36    0.00   701    1    100.0   30 
17/10/19  4:30a    9.6    9.6    9.4    96    8.9   0.0   ---  0.00   0.0   ---    9.6    9.8    9.8    8.4  1020.0  0.51   1.3     0     0.00      0     0.0  0.00   0.0   0.183   0.000   26.3    36    0.00   701    1    100.0   30 
17/10/19  5:00a    9.1    9.6    9.1    95    8.4   0.0    SW  0.00  11.3    SW    9.1    9.3    9.3    7.9  1020.2  0.00   0.0     0     0.00      0     0.0  0.00   0.0   0.192   0.000   26.3    36    0.00   673    1     98.4   30 
17/10/19  5:30a    8.6    9.1    8.6    94    7.6   0.0    SW  0.00  12.9    SW    8.6    8.7    8.7    7.2  1020.5  0.00   0.0     0     0.00      0     0.0  0.00   0.0   0.204   0.000   26.2    36    0.00   702    1    100.0   30 
17/10/19  6:00a    8.6    8.6    8.4    94    7.7   0.0   ---  0.00   0.0   ---    8.6    8.8    8.8    7.3  1020.9  0.00   0.0     5     0.22     14     0.0  0.00   0.0   0.203   0.000   26.0    36    0.00   700    1    100.0   30 
17/10/19  6:30a    8.6    8.6    8.2    95    7.8   0.0   ---  0.00   0.0   ---    8.6    8.7    8.7    7.7  1021.4  0.00   0.0    38     1.63     67     0.0  0.00   0.0   0.204   0.000   25.9    36    0.00   702    1    100.0   30 
17/10/19  7:00a    8.6    8.7    8.4    94    7.6   0.0   ---  0.00   0.0   ---    8.6    8.7    8.7    7.9  1022.0  0.00   0.0    53     2.28    121     0.0  0.00   0.0   0.204   0.000   25.9    36    0.03   701    1    100.0   30 
17/10/19  7:30a    9.3    9.3    8.6    90    7.8   0.0   NNW  0.00  35.4   NNE    9.3    9.5    9.5   11.4  1022.2  0.00   0.0   139     5.98    251     0.0  0.00   0.0   0.188   0.000   26.1    35    0.00   702    1    100.0   30 
17/10/19  8:00a   10.2   10.2    9.3    76    6.1   3.2     W  1.61  29.0   NNW   10.2   10.1   10.1   12.2  1022.5  0.00   0.0   153     6.58    288     0.0  0.00   0.0   0.170   0.000   27.4    34    0.08   699    1    100.0   30 
17/10/19  8:30a   10.6   10.6   10.2    74    6.1   3.2    NW  1.61  27.4   NNE   10.6   10.4   10.4   11.1  1023.0  0.00   0.0    92     3.96    135     0.0  0.00   0.0   0.162   0.000   28.1    33    0.00   702    1    100.0   30 
17/10/19  9:00a    9.7   10.6    9.6    84    7.1   1.6   WNW  0.80  35.4   NNE    9.7    9.7    9.7   10.8  1023.1  0.25   0.0   120     5.16    309     0.2  0.04   1.2   0.181   0.000   28.3    33    0.05   702    1    100.0   30 
17/10/19  9:30a   11.4   11.4    9.7    75    7.1   3.2   WNW  1.61  25.7    NE   11.4   11.1   11.1   15.0  1023.0  0.00   0.0   331    14.23    589     1.5  0.32   2.7   0.145   0.000   28.4    33    0.00   701    1    100.0   30 
17/10/19 10:00a   12.1   12.1   11.4    69    6.6   4.8   WSW  2.41  27.4     W   12.1   11.7   11.6   14.8  1023.2  0.00   0.0   303    13.03    954     1.3  0.28   1.9   0.130   0.000   28.6    32    0.18   677    1     99.0   30 
17/10/19 10:30a   12.8   12.8   11.9    66    6.6   4.8   WSW  2.41  35.4     N   12.8   12.3   12.2   15.1  1023.2  0.00   0.0   294    12.64    550     1.7  0.36   4.0   0.115   0.000   28.9    32    0.00   701    1    100.0   30 
17/10/19 11:00a   13.7   13.7   12.8    61    6.3   3.2   WSW  1.61  22.5    NW   13.7   13.1   13.1   16.6  1023.1  0.25   0.0   360    15.48   1188     2.0  0.43   4.2   0.096   0.000   29.4    31    0.23   703    1    100.0   30 
17/10/19 11:30a   14.8   14.8   13.8    54    5.6   6.4     W  3.22  37.0     N   14.8   13.8   13.6   18.7  1022.8  0.00   0.0   549    23.61    972     2.7  0.58   4.6   0.074   0.000   29.9    30    0.00   701    1    100.0   30 
17/10/19 12:00p   13.2   15.1   13.2    62    6.1   6.4     W  3.22  29.0   WSW   13.1   12.6   12.2   14.1  1024.0  0.25   0.0   226     9.72    554     1.3  0.28   3.4   0.106   0.000   29.8    29    0.00   701    1    100.0   30 
17/10/19 12:30p   10.7   13.2   10.7    81    7.6   1.6     W  0.80  24.1    SW   10.7   10.7   10.7   12.1  1024.0  0.76   7.9   186     8.00    251     0.8  0.17   1.2   0.159   0.000   29.7    30    0.25   703    1    100.0   30 
17/10/19  1:00p   10.6   10.8   10.5    82    7.7   1.6     W  0.80  29.0   SSW   10.6   10.6   10.6   12.0  1024.1  0.51   1.5   189     8.13    376     0.9  0.19   1.9   0.161   0.000   29.2    32    0.10   699    1    100.0   30 
17/10/19  1:30p   12.4   12.4   10.6    72    7.5   3.2    NW  1.61  22.5   WNW   12.4   12.1   12.1   15.9  1024.0  0.00   0.0   392    16.86    719     2.0  0.43   4.3   0.123   0.000   28.3    32    0.00   700    1    100.0   30 
17/10/19  2:00p   13.6   13.6   12.4    65    7.1   6.4     W  3.22  25.7     W   13.5   13.0   12.7   15.6  1023.5  0.00   0.0   300    12.90    552     1.5  0.32   2.8   0.100   0.000   27.8    33    0.20   700    1    100.0   30 
17/10/19  2:30p   14.3   14.9   13.6    61    6.9   8.0     W  4.02  29.0   NNW   14.1   13.7   13.2   17.2  1023.7  0.00   0.0   389    16.73    995     2.1  0.45   4.2   0.083   0.000   27.8    33    0.00   699    1    100.0   30 
17/10/19  3:00p   14.2   14.6   14.0    63    7.2   4.8   WSW  2.41  32.2     S   14.2   13.6   13.5   16.9  1023.8  0.00   0.0   316    13.59    872     1.4  0.30   3.2   0.087   0.000   28.1    32    0.25   701    1    100.0   30 
17/10/19  3:30p   15.2   15.2   14.2    60    7.5   6.4   WSW  3.22  33.8     S   15.2   14.5   14.3   19.5  1023.8  0.00   0.0   457    19.65    844     1.6  0.34   2.4   0.065   0.000   28.1    32    0.00   700    1    100.0   30 
17/10/19  4:00p   15.2   15.6   15.2    59    7.2   4.8    SW  2.41  27.4     W   15.2   14.4   14.4   18.2  1024.1  0.00   0.0   294    12.64    540     0.9  0.19   1.8   0.066   0.000   28.1    32    0.25   702    1    100.0   30 
17/10/19  4:30p   14.6   15.1   14.6    64    7.8   4.8     W  2.41  30.6     S   14.6   13.9   13.9   14.6  1024.8  0.00   0.0    89     3.83    185     0.0  0.00   0.5   0.079   0.000   28.1    32    0.00   665    1     97.2   30 
17/10/19  5:00p   13.0   14.6   13.0    71    7.9   3.2   WSW  1.61  32.2     S   13.0   12.6   12.6   13.1  1025.7  0.00   0.0    69     2.97    155     0.0  0.00   0.0   0.111   0.000   27.9    32    0.05   701    1    100.0   30 
17/10/19  5:30p   13.3   13.4   13.0    72    8.4   3.2   WSW  1.61  24.1   WSW   13.3   12.9   12.9   14.1  1026.1  0.00   0.0    96     4.13    185     0.0  0.00   0.0   0.104   0.000   28.1    32    0.00   696    1    100.0   30 
17/10/19  6:00p   13.3   13.4   13.3    73    8.5   1.6    SW  0.80  22.5   SSW   13.3   12.9   12.9   12.1  1026.8  0.00   0.0    65     2.80     91     0.0  0.00   0.0   0.105   0.000   27.9    32    0.05   703    1    100.0   30 
17/10/19  6:30p   13.0   13.3   13.0    73    8.3   0.0     W  0.00  19.3   SSW   13.0   12.7   12.7   11.2  1027.4  0.00   0.0    18     0.77     33     0.0  0.00   0.0   0.111   0.000   28.2    32    0.00   700    1    100.0   30 
17/10/19  7:00p   13.0   13.0   12.9    73    8.3   0.0    NW  0.00  16.1    NW   13.0   12.7   12.7   11.0  1027.9  0.00   0.0     0     0.00      0     0.0  0.00   0.0   0.111   0.000   28.2    32    0.00   680    1     99.4   30 
17/10/19  7:30p   13.1   13.1   13.0    68    7.3   1.6   WSW  0.80  22.5     S   13.1   12.6   12.6   10.9  1028.6  0.00   0.0     0     0.00      0     0.0  0.00   0.0   0.109   0.000   28.2    31    0.00   702    1    100.0   30 
17/10/19  8:00p   12.9   13.1   12.9    68    7.2   1.6    SW  0.80  16.1   WSW   12.9   12.4   12.4   10.7  1029.2  0.00   0.0     0     0.00      0     0.0  0.00   0.0   0.112   0.000   28.2    31    0.03   700    1    100.0   30 
17/10/19  8:30p   12.4   12.9   12.4    72    7.5   1.6     W  0.80  17.7     W   12.4   12.1   12.1   10.4  1029.9  0.00   0.0     0     0.00      0     0.0  0.00   0.0   0.123   0.000   28.1    31    0.00   702    1    100.0   30 
17/10/19  9:00p   12.2   12.5   12.2    75    7.9   1.6   WSW  0.80  17.7   WNW   12.2   11.9   11.9   10.2  1030.2  0.00   0.0     0     0.00      0     0.0  0.00   0.0   0.128   0.000   27.9    31    0.03   700    1    100.0   30 
17/10/19  9:30p   11.8   12.2   11.8    77    7.9   1.6    SW  0.80  22.5     W   11.8   11.6   11.6    9.9  1030.5  0.00   0.0     0     0.00      0     0.0  0.00   0.0   0.137   0.000   27.8    31    0.00   701    1    100.0   30 
17/10/19 10:00p   11.3   11.8   11.3    78    7.6   0.0    SW  0.00  16.1    SW   11.3   11.1   11.1    9.4  1030.5  0.00   0.0     0     0.00      0     0.0  0.00   0.0   0.147   0.000   27.7    31    0.03   702    1    100.0   30 
17/10/19 10:30p   11.3   11.3   11.2    78    7.6   0.0    SW  0.00  11.3    SW   11.3   11.1   11.1    9.4  1030.6  0.00   0.0     0     0.00      0     0.0  0.00   0.0   0.147   0.000   27.6    31    0.00   703    1    100.0   30 
17/10/19 11:00p   11.3   11.3   11.3    79    7.8   0.0    SW  0.00   6.4    SW   11.3   11.1   11.1    9.4  1030.5  0.00   0.0     0     0.00      0     0.0  0.00   0.0   0.147   0.000   27.4    31    0.03   701    1    100.0   30 
17/10/19 11:30p   10.6   11.3   10.6    79    7.1   0.0    SW  0.00  12.9    SW   10.6   10.5   10.5    8.8  1030.4  0.00   0.0     0     0.00      0     0.0  0.00   0.0   0.161   0.000   27.3    31    0.00   700    1    100.0   30 
18/10/19 12:00a    9.3   10.6    9.3    81    6.2   0.0   ---  0.00   0.0   ---    9.3    9.3    9.3    7.6  1030.3  0.00   0.0     0     0.00      0     0.0  0.00   0.0   0.188   0.000   27.1    31    0.03   699    1    100.0   30 
18/10/19 12:30a    8.3    9.3    8.3    85    6.0   0.0   ---  0.00   0.0   ---    8.3    8.3    8.3    6.6  1030.1  0.00   0.0     0     0.00      0     0.0  0.00   0.0   0.208   0.000   27.0    31    0.00   701    1    100.0   30 
18/10/19  1:00a    8.2    8.3    8.2    88    6.4   0.0    SW  0.00   1.6    SW    8.2    8.3    8.3    6.6  1029.9  0.00   0.0     0     0.00      0     0.0  0.00   0.0   0.211   0.000   26.8    31    0.00   703    1    100.0   30 
18/10/19  1:30a    7.8    8.2    7.8    92    6.6   0.0   ---  0.00   0.0   ---    7.8    7.9    7.9    6.2  1030.0  0.00   0.0     0     0.00      0     0.0  0.00   0.0   0.219   0.000   26.6    32    0.00   701    1    100.0   30 
18/10/19  2:00a    7.7    7.8    7.7    88    5.9   0.0   ---  0.00   0.0   ---    7.7    7.8    7.8    6.0  1030.1  0.00   0.0     0     0.00      0     0.0  0.00   0.0   0.221   0.000   26.4    32    0.00   701    1    100.0   30 
18/10/19  2:30a    6.9    7.7    6.9    88    5.1   0.0   ---  0.00   0.0   ---    6.9    6.9    6.9    5.2  1029.8  0.00   0.0     0     0.00      0     0.0  0.00   0.0   0.237   0.000   26.3    32    0.00   699    1    100.0   30 
18/10/19  3:00a    6.2    6.9    6.2    89    4.5   0.0   ---  0.00   0.0   ---    6.2    6.2    6.2    4.4  1029.5  0.00   0.0     0     0.00      0     0.0  0.00   0.0   0.252   0.000   26.1    32    0.00   702    1    100.0   30 
18/10/19  3:30a    6.3    6.4    6.2    91    4.9   0.0   ---  0.00   0.0   ---    6.3    6.3    6.3    4.4  1029.5  0.00   0.0     0     0.00      0     0.0  0.00   0.0   0.251   0.000   25.9    32    0.00   701    1    100.0   30 
18/10/19  4:00a    6.1    6.3    6.1    91    4.7   0.0   ---  0.00   0.0   ---    6.1    6.1    6.1    4.2  1029.2  0.00   0.0     0     0.00      0     0.0  0.00   0.0   0.256   0.000   25.7    32    0.00   701    1    100.0   30 
18/10/19  4:30a    5.4    6.1    5.4    92    4.2   0.0   ---  0.00   0.0   ---    5.4    5.4    5.4    3.6  1029.4  0.00   0.0     0     0.00      0     0.0  0.00   0.0   0.269   0.000   25.6    31    0.00   700    1    100.0   30 
18/10/19  5:00a    5.4    5.4    5.4    93    4.3   0.0   ---  0.00   0.0   ---    5.4    5.4    5.4    3.6  1029.5  0.00   0.0     0     0.00      0     0.0  0.00   0.0   0.270   0.000   25.4    31    0.00   698    1    100.0   30 
18/10/19  5:30a    5.3    5.4    5.3    93    4.3   0.0    SW  0.00   6.4    SW    5.3    5.3    5.3    3.5  1029.3  0.00   0.0     0     0.00      5     0.0  0.00   0.0   0.271   0.000   25.2    31    0.00   701    1    100.0   30 
18/10/19  6:00a    5.3    5.3    5.2    94    4.4   0.0   ---  0.00   0.0   ---    5.3    5.3    5.3    3.7  1029.4  0.00   0.0    15     0.65     25     0.0  0.00   0.0   0.272   0.000   25.0    31    0.00   703    1    100.0   30 
18/10/19  6:30a    5.9    5.9    5.3    94    5.0   0.0   ---  0.00   0.0   ---    5.9    5.9    5.9    4.7  1029.6  0.00   0.0    47     2.02    135     0.0  0.00   0.0   0.259   0.000   24.8    31    0.00   701    1    100.0   30 
18/10/19  7:00a    7.8    7.8    5.9    94    6.9   0.0    SW  0.00   1.6    SW    7.8    8.0    8.0    8.7  1029.6  0.00   0.0   192     8.26    244     0.0  0.00   0.0   0.219   0.000   24.7    31    0.05   703    1    100.0   30 
18/10/19  7:30a   10.4   10.4    7.8    78    6.8   3.2   NNW  1.61  29.0    NE   10.4   10.3   10.3   15.7  1029.6  0.00   0.0   309    13.29    366     0.2  0.04   0.6   0.164   0.000   25.5    31    0.00   701    1    100.0   30 
18/10/19  8:00a   12.2   12.2   10.5    65    5.8   9.7   NNW  4.83  48.3   NNE   11.3   11.6   10.7   17.4  1029.5  0.00   0.0   419    18.02    469     0.9  0.19   1.1   0.128   0.000   26.4    31    0.18   702    1    100.0   30 
18/10/19  8:30a   13.0   13.0   12.2    63    6.1  12.9   NNW  6.44  48.3   NNE   11.8   12.4   11.0   17.7  1029.3  0.00   0.0   522    22.45    577     1.4  0.30   1.7   0.111   0.000   27.2    30    0.00   677    1     99.0   30 
18/10/19  9:00a   13.6   13.6   13.0    60    5.9   9.7   NNW  4.83  49.9    NE   12.9   12.8   12.1   19.4  1029.2  0.00   0.0   623    26.79    682     2.0  0.43   2.3   0.100   0.000   27.8    29    0.33   701    1    100.0   30 
18/10/19  9:30a   14.2   14.3   13.6    59    6.3  12.9     N  6.44  45.1     N   13.3   13.4   12.1   18.8  1028.8  0.00   0.0   702    30.19    749     2.6  0.56   3.0   0.086   0.000   28.1    28    0.00   699    1    100.0   30 
18/10/19 10:00a   15.1   15.1   14.2    59    7.1  12.9   NNW  6.44  41.8   NNE   14.3   14.3   13.1   19.7  1028.7  0.00   0.0   780    33.54    837     3.4  0.73   3.7   0.068   0.000   28.5    28    0.00   700    1    100.0   30 
18/10/19 10:30a   15.8   15.8   15.1    57    7.3  17.7     N  8.85  59.5    NE   14.9   15.0   13.2   19.4  1028.1  0.00   0.0   891    38.32   1053     4.0  0.86   4.7   0.052   0.000   29.1    28    0.43   703    1    100.0   30 
18/10/19 11:00a   16.6   16.6   15.8    54    7.2  12.9   NNW  6.44  53.1   NNE   16.2   15.7   14.6   21.0  1027.5  0.00   0.0   907    39.01    976     4.4  0.94   4.9   0.037   0.000   29.4    28    0.53   701    1    100.0   30 
18/10/19 11:30a   17.1   17.1   16.6    52    7.2  17.7     N  8.85  49.9     N   16.5   16.2   14.5   19.9  1026.8  0.00   0.0   920    39.57    967     4.9  1.05   5.2   0.025   0.000   29.6    28    0.00   700    1    100.0   30 
18/10/19 12:00p   17.6   17.7   17.1    50    7.1  14.5   NNW  7.24  48.3   NNE   17.3   16.6   15.4   20.3  1026.5  0.00   0.0   793    34.10   1000     4.4  0.94   5.7   0.015   0.000   29.7    28    0.56   701    1    100.0   30 
18/10/19 12:30p   18.2   18.2   17.6    50    7.6  16.1     N  8.05  53.1     N   18.0   17.3   15.9   21.7  1026.1  0.00   0.0   964    41.46   1164     5.1  1.09   6.2   0.002   0.000   29.9    27    0.00   699    1    100.0   30 
18/10/19  1:00p   18.6   18.7   18.2    49    7.7  14.5   NNW  7.24  49.9   NNE   18.6   17.7   16.5   19.9  1025.6  0.00   0.0   391    16.82   1125     3.7  0.79   6.0   0.000   0.006   30.3    27    0.51   699    1    100.0   30 
18/10/19  1:30p   19.3   19.3   18.6    46    7.4  11.3   NNW  5.63  45.1   NNE   19.3   18.2   17.9   21.9  1025.0  0.00   0.0   415    17.85   1192     3.1  0.66   5.5   0.000   0.020   29.7    28    0.00   700    1    100.0   30 
18/10/19  2:00p   20.6   20.6   19.3    42    7.2  14.5   NNW  7.24  43.5    NE   20.6   19.3   18.3   23.6  1024.1  0.00   0.0   799    34.36   1009     3.7  0.79   4.8   0.000   0.046   29.2    29    0.46   697    1    100.0   30 
18/10/19  2:30p   20.7   21.0   20.4    38    5.8  14.5   NNW  7.24  49.9   NNE   20.7   19.2   18.2   23.8  1024.0  0.00   0.0   778    33.46    933     3.5  0.75   4.2   0.000   0.049   28.7    29    0.00   700    1    100.0   30 
18/10/19  3:00p   21.2   21.2   20.6    37    5.9  11.3   NNW  5.63  41.8   NNW   21.2   19.6   19.5   25.7  1023.5  0.00   0.0   709    30.49    824     2.9  0.62   3.4   0.000   0.060   28.3    28    0.53   644    1     94.2   30 
18/10/19  3:30p   21.2   21.7   21.1    36    5.5  11.3   NNW  5.63  43.5   NNW   21.2   19.6   19.5   25.0  1023.4  0.00   0.0   583    25.07    694     2.2  0.47   2.7   0.000   0.060   28.1    29    0.00   698    1    100.0   30 
18/10/19  4:00p   21.1   21.6   21.1    36    5.4  12.9   NNW  6.44  54.7   NNE   21.1   19.4   18.8   23.4  1022.9  0.00   0.0   461    19.83    657     1.5  0.32   2.1   0.000   0.058   28.1    28    0.41   700    1    100.0   30 
18/10/19  4:30p   21.7   21.7   20.9    35    5.6   6.4   NNW  3.22  32.2     N   21.7   20.2   20.2   24.2  1022.8  0.00   0.0   289    12.43    536     0.9  0.19   1.1   0.000   0.071   28.1    28    0.00   702    1    100.0   30 
18/10/19  5:00p   21.7   22.1   21.6    35    5.5   8.0   NNW  4.02  54.7   NNE   21.7   20.1   20.1   25.1  1022.4  0.00   0.0   333    14.32    501     0.7  0.15   0.9   0.000   0.069   28.1    28    0.25   701    1    100.0   30 
18/10/19  5:30p   21.4   21.7   21.4    32    4.1   8.0    NW  4.02  40.2    NE   21.4   19.7   19.7   22.8  1022.4  0.00   0.0   212     9.12    290     0.1  0.02   0.5   0.000   0.065   28.1    28    0.00   701    1    100.0   30 
18/10/19  6:00p   20.9   21.4   20.9    34    4.5   3.2   NNW  1.61  27.4     N   20.9   19.2   19.2   18.0  1022.4  0.00   0.0    71     3.05    146     0.0  0.00   0.0   0.000   0.054   28.1    28    0.15   702    1    100.0   30 
18/10/19  6:30p   20.1   20.9   20.1    36    4.6   0.0     W  0.00  12.9   WSW   20.1   18.5   18.5   16.6  1022.7  0.00   0.0    13     0.56     25     0.0  0.00   0.0   0.000   0.037   27.9    28    0.00   703    1    100.0   30 
18/10/19  7:00p   19.8   20.1   19.7    37    4.7   0.0    NW  0.00  16.1   WNW   19.8   18.2   18.2   16.2  1023.3  0.00   0.0     0     0.00      5     0.0  0.00   0.0   0.000   0.030   27.9    28    0.03   700    1    100.0   30 
18/10/19  7:30p   14.7   19.8   14.7    74   10.1   6.4     S  3.22  46.7     S   14.7   14.3   14.1   12.3  1025.1  0.00   0.0     0     0.00      0     0.0  0.00   0.0   0.076   0.000   28.3    28    0.00   672    1     98.2   30 
18/10/19  8:00p   14.2   14.7   14.2    77   10.2   4.8    SW  2.41  45.1   SSE   14.2   14.0   13.9   12.2  1026.0  0.00   0.0     0     0.00      0     0.0  0.00   0.0   0.086   0.000   28.3    29    0.05   701    1    100.0   30 
18/10/19  8:30p   13.6   14.2   13.6    78    9.8   4.8    SW  2.41  30.6   SSW   13.6   13.4   13.3   11.5  1027.0  0.00   0.0     0     0.00      0     0.0  0.00   0.0   0.098   0.000   28.2    29    0.00   701    1    100.0   30 
18/10/19  9:00p   11.8   13.6   11.8    85    9.3   1.6   WSW  0.80  25.7    SW   11.8   11.7   11.7    9.9  1027.1  0.25   0.0     0     0.00      0     0.0  0.00   0.0   0.137   0.000   28.3    29    0.03   674    1     98.5   30 
18/10/19  9:30p   11.5   11.8   11.4    88    9.6   0.0   ---  0.00   0.0   ---   11.5   11.6   11.6    9.8  1027.1  0.00   0.0     0     0.00      0     0.0  0.00   0.0   0.142   0.000   28.1    30    0.00   701    1    100.0   30 
18/10/19 10:00p   11.5   11.5   11.4    88    9.6   0.0   ---  0.00   0.0   ---   11.5   11.6   11.6    9.8  1027.2  0.00   0.0     0     0.00      0     0.0  0.00   0.0   0.142   0.000   28.1    30    0.00   703    1    100.0   30 
18/10/19 10:30p   11.2   11.5   11.2    88    9.3   0.0   ---  0.00   0.0   ---   11.2   11.3   11.3    9.4  1026.9  0.00   0.0     0     0.00      0     0.0  0.00   0.0   0.148   0.000   28.2    30    0.00   700    1    100.0   30 
18/10/19 11:00p   10.7   11.2   10.7    89    8.9   0.0   ---  0.00   0.0   ---   10.7   10.8   10.8    8.9  1026.9  0.00   0.0     0     0.00      0     0.0  0.00   0.0   0.160   0.000   28.1    30    0.00   700    1    100.0   30 
18/10/19 11:30p   10.8   10.8   10.6    91    9.4   0.0   ---  0.00   0.0   ---   10.8   10.9   10.9    9.1  1026.9  0.00   0.0     0     0.00      0     0.0  0.00   0.0   0.156   0.000   27.9    30    0.00   677    1     99.0   30 
19/10/19 12:00a   10.6   10.9   10.6    91    9.2   0.0   ---  0.00   0.0   ---   10.6   10.7   10.7    8.9  1026.7  0.00   0.0     0     0.00      0     0.0  0.00   0.0   0.161   0.000   27.8    30    0.00   702    1    100.0   30 
19/10/19 12:30a   10.9   10.9   10.3    82    7.9   0.0    SW  0.00   9.7    SW   10.9   10.8   10.8    8.9  1026.5  0.00   0.0     0     0.00      0     0.0  0.00   0.0   0.155   0.000   27.8    30    0.00   701    1    100.0   30 
19/10/19  1:00a   11.3   11.4   10.9    75    7.1   0.0   WSW  0.00  20.9     S   11.3   11.1   11.1    9.2  1026.3  0.00   0.0     0     0.00      0     0.0  0.00   0.0   0.146   0.000   27.7    31    0.03   700    1    100.0   30 
19/10/19  1:30a   11.3   11.3   11.3    74    6.8   0.0   WSW  0.00  14.5   WSW   11.3   11.0   11.0    9.1  1026.4  0.00   0.0     0     0.00      0     0.0  0.00   0.0   0.147   0.000   27.4    31    0.00   679    1     99.3   30 
19/10/19  2:00a   10.8   11.3   10.8    75    6.5   0.0    SW  0.00  14.5   WNW   10.8   10.6   10.6    8.7  1026.5  0.00   0.0     0     0.00      0     0.0  0.00   0.0   0.157   0.000   27.3    31    0.03   702    1    100.0   30 
19/10/19  2:30a   10.4   10.8   10.4    77    6.5   0.0   ---  0.00   0.0   ---   10.4   10.3   10.3    8.3  1026.2  0.00   0.0     0     0.00      0     0.0  0.00   0.0   0.166   0.000   27.2    31    0.00   702    1    100.0   30 
19/10/19  3:00a   10.3   10.4   10.3    77    6.4   0.0    SW  0.00  14.5   WSW   10.3   10.2   10.2    8.2  1026.1  0.00   0.0     0     0.00      0     0.0  0.00   0.0   0.168   0.000   27.1    31    0.03   699    1    100.0   30 
19/10/19  3:30a   10.3   10.3   10.3    76    6.3   0.0   ---  0.00   0.0   ---   10.3   10.2   10.2    8.3  1026.1  0.00   0.0     0     0.00      0     0.0  0.00   0.0   0.167   0.000   27.0    31    0.00   702    1    100.0   30 
19/10/19  4:00a   10.3   10.4   10.3    75    6.0   0.0   ---  0.00   0.0   ---   10.3   10.2   10.2    8.2  1026.0  0.00   0.0     0     0.00      0     0.0  0.00   0.0   0.168   0.000   26.9    31    0.03   699    1    100.0   30 
19/10/19  4:30a   10.1   10.3   10.1    76    6.1   0.0   ---  0.00   0.0   ---   10.1   10.0   10.0    8.0  1026.5  0.00   0.0     0     0.00      0     0.0  0.00   0.0   0.171   0.000   26.8    31    0.00   702    1    100.0   30 
19/10/19  5:00a   10.0   10.1   10.0    74    5.6   0.0   WNW  0.00  16.1    NW   10.0    9.9    9.9    7.9  1026.8  0.00   0.0     0     0.00      0     0.0  0.00   0.0   0.174   0.000   26.7    31    0.03   703    1    100.0   30 
19/10/19  5:30a    7.9   10.1    7.9    82    5.1   1.6     W  0.80  25.7   SSW    7.9    7.9    7.9    5.9  1027.4  1.02  23.4     0     0.00      5     0.0  0.00   0.0   0.216   0.000   26.6    31    0.00   701    1    100.0   30 
19/10/19  6:00a    7.7    7.9    7.5    88    5.8   0.0   NNW  0.00  11.3     N    7.7    7.7    7.7    6.0  1028.0  0.00   0.0    23     0.99     47     0.0  0.00   0.0   0.222   0.000   26.4    31    0.00   701    1    100.0   30 
19/10/19  6:30a    7.6    7.7    7.6    87    5.5   0.0   NNW  0.00  12.9   NNW    7.6    7.6    7.6    5.9  1028.0  0.25   0.0    31     1.33    132     0.0  0.00   0.0   0.225   0.000   26.3    31    0.00   702    1    100.0   30 
19/10/19  7:00a    9.1    9.1    7.6    85    6.7   0.0   ---  0.00   0.0   ---    9.1    9.1    9.1    9.3  1028.3  0.00   0.0   184     7.91    257     0.0  0.00   0.0   0.193   0.000   26.2    31    0.05   698    1    100.0   30 
19/10/19  7:30a   10.6   10.6    9.1    74    6.1   0.0    NW  0.00  20.9    NW   10.6   10.4   10.4   15.4  1028.5  0.00   0.0   295    12.69    445     0.0  0.00   0.5   0.162   0.000   26.2    31    0.00   702    1    100.0   30 
19/10/19  8:00a   11.0   11.0   10.6    66    4.9   1.6   WSW  0.80  32.2     N   11.0   10.6   10.6   13.7  1028.6  0.00   0.0   208     8.95    246     0.2  0.04   0.7   0.153   0.000   26.3    31    0.13   698    1    100.0   30 
19/10/19  8:30a   12.2   12.2   11.0    61    4.9   4.8     W  2.41  24.1     N   12.2   11.6   11.4   17.6  1028.9  0.00   0.0   471    20.26    612     1.2  0.26   1.5   0.127   0.000   26.4    30    0.00   698    1    100.0   30 
19/10/19  9:00a   12.3   12.4   12.1    58    4.3   8.0     W  4.02  25.7    SW   11.8   11.6   10.9   15.7  1029.1  0.00   0.0   400    17.20    949     1.4  0.30   2.3   0.125   0.000   26.5    30    0.25   700    1    100.0   30 
19/10/19  9:30a   13.3   13.3   12.3    54    4.2   4.8     W  2.41  35.4     N   13.3   12.4   12.3   16.8  1029.0  0.00   0.0   400    17.20    932     1.9  0.41   3.0   0.105   0.000   26.6    30    0.00   700    1    100.0   30 
19/10/19 10:00a   13.4   13.4   13.1    51    3.4   4.8     W  2.41  32.2     N   13.4   12.4   12.3   15.9  1029.2  0.00   0.0   344    14.79    450     1.9  0.41   4.0   0.103   0.000   26.8    30    0.25   701    1    100.0   30 
19/10/19 10:30a   13.0   13.7   13.0    52    3.4   6.4     W  3.22  29.0   SSW   12.8   12.1   11.7   14.8  1029.8  0.00   0.0   315    13.55    772     1.6  0.34   3.1   0.111   0.000   26.9    29    0.00   674    1     98.5   30 
19/10/19 11:00a   13.3   13.4   12.3    49    2.8   4.8   WSW  2.41  33.8   SSW   13.3   12.2   12.1   15.7  1029.6  0.00   0.0   371    15.96    596     1.9  0.41   3.1   0.105   0.000   27.0    29    0.23   702    1    100.0   30 
19/10/19 11:30a   13.5   13.5   13.1    52    3.8   3.2   WSW  1.61  25.7   SSW   13.5   12.5   12.5   15.1  1029.5  0.00   0.0   295    12.69    462     2.0  0.43   5.0   0.101   0.000   27.1    29    0.00   700    1    100.0   30 
19/10/19 12:00p   14.7   15.1   13.5    49    4.1   3.2     W  1.61  27.4   NNE   14.7   13.5   13.5   19.2  1029.5  0.00   0.0   718    30.88   1206     3.8  0.81   5.6   0.076   0.000   27.2    28    0.30   701    1    100.0   30 
19/10/19 12:30p   15.2   15.4   14.4    45    3.3   3.2    SW  1.61  24.1     W   15.2   13.9   13.9   18.2  1029.4  0.00   0.0   466    20.04   1325     3.1  0.66   5.7   0.066   0.000   27.4    28    0.00   700    1    100.0   30 
19/10/19  1:00p   15.1   15.4   15.1    46    3.6   4.8    SW  2.41  25.7   SSW   15.1   13.9   13.8   17.8  1029.5  0.00   0.0   424    18.23   1071     2.8  0.60   5.6   0.067   0.000   27.6    28    0.30   703    1    100.0   30 
19/10/19  1:30p   15.4   15.4   14.8    45    3.5   3.2     W  1.61  25.7     S   15.4   14.1   14.1   18.0  1029.5  0.00   0.0   409    17.59   1230     2.5  0.54   5.4   0.061   0.000   27.8    28    0.00   700    1    100.0   30 
19/10/19  2:00p   12.7   15.4   12.4    62    5.6   3.2    SW  1.61  33.8   WSW   12.7   12.0   12.0   13.9  1029.9  0.00   0.0   229     9.85    355     1.1  0.24   1.8   0.118   0.000   27.8    28    0.00   702    1    100.0   30 
19/10/19  2:30p   12.2   13.1   12.2    77    8.3   1.6    SW  0.80  35.4   SSE   12.2   12.0   12.0   14.0  1030.2  0.76  11.9   218     9.38    657     0.9  0.19   3.0   0.127   0.000   27.8    28    0.20   703    1    100.0   30 
19/10/19  3:00p   13.3   13.3   12.2    65    6.8   1.6   NNW  0.80  22.5   NNW   13.3   12.7   12.7   15.8  1030.3  0.00   0.0   286    12.30    552     1.3  0.28   2.3   0.105   0.000   27.8    28    0.00   701    1    100.0   30 
19/10/19  3:30p   12.2   13.4   12.1    75    7.9   3.2   WSW  1.61  25.7   WSW   12.2   11.9   11.9   13.8  1030.6  0.25   0.0   183     7.87    373     0.5  0.11   1.1   0.128   0.000   27.8    28    0.15   701    1    100.0   30 
19/10/19  4:00p   14.1   14.1   12.2    63    7.1   0.0    SW  0.00  16.1    NW   14.1   13.4   13.4   17.9  1030.5  0.00   0.0   349    15.01    786     1.2  0.26   1.7   0.089   0.000   27.8    28    0.15   701    1    100.0   30 
19/10/19  4:30p   11.7   14.1   11.7    74    7.2   3.2   WSW  1.61  29.0   SSW   11.7   11.4   11.4   11.9  1031.6  1.02  14.5    81     3.48    149     0.0  0.00   0.0   0.138   0.000   27.8    28    0.00   702    1    100.0   30 
19/10/19  5:00p   10.8   11.7   10.5    85    8.4   1.6   WSW  0.80  29.0     S   10.8   10.8   10.8   12.9  1031.8  0.51   3.0   148     6.36    432     0.0  0.00   0.0   0.156   0.000   27.8    28    0.08   676    1     98.8   30 
19/10/19  5:30p   11.0   11.2   10.8    83    8.2   0.0   ---  0.00   0.0   ---   11.0   10.9   10.9   12.2  1032.0  0.00   0.0   102     4.39    308     0.0  0.00   0.0   0.153   0.000   27.7    29    0.00   701    1    100.0   30 
19/10/19  6:00p   11.6   11.7   11.0    79    8.1   0.0   ---  0.00   0.0   ---   11.6   11.4   11.4   10.8  1032.2  0.00   0.0    80     3.44    156     0.0  0.00   0.0   0.140   0.000   27.6    29    0.05   702    1    100.0   30 
19/10/19  6:30p   11.7   11.7   11.6    74    7.2   0.0    SW  0.00  17.7   WSW   11.7   11.4   11.4    9.9  1032.9  0.00   0.0    22     0.95     39     0.0  0.00   0.0   0.139   0.000   27.4    29    0.00   699    1    100.0   30 
19/10/19  7:00p   11.1   11.7   11.1    76    7.0   0.0   ---  0.00   0.0   ---   11.1   10.9   10.9    9.2  1033.4  0.00   0.0     1     0.04      7     0.0  0.00   0.0   0.150   0.000   27.3    29    0.00   685    1    100.0   30 
19/10/19  7:30p   10.7   11.1   10.7    77    6.9   0.0     N  0.00  11.3   NNE   10.7   10.6   10.6    8.8  1033.9  0.00   0.0     0     0.00      0     0.0  0.00   0.0   0.159   0.000   27.1    29    0.00   695    1    100.0   30 
19/10/19  8:00p   10.4   10.7   10.4    75    6.1   0.0   ---  0.00   0.0   ---   10.4   10.2   10.2    8.5  1034.4  0.00   0.0     0     0.00      0     0.0  0.00   0.0   0.166   0.000   27.0    30    0.00   700    1    100.0   30 
19/10/19  8:30p    9.7   10.4    9.7    78    6.0   0.0   ---  0.00   0.0   ---    9.7    9.6    9.6    7.8  1034.9  0.00   0.0     0     0.00      0     0.0  0.00   0.0   0.181   0.000   26.8    30    0.03   661    1     96.6   30 
19/10/19  9:00p    8.4    9.7    8.4    82    5.5   0.0   ---  0.00   0.0   ---    8.4    8.4    8.4    6.6  1035.2  0.00   0.0     0     0.00      0     0.0  0.00   0.0   0.206   0.000   26.6    30    0.03   675    1     98.7   30 
19/10/19  9:30p    7.8    8.4    7.8    86    5.6   0.0   ---  0.00   0.0   ---    7.8    7.8    7.8    6.0  1035.5  0.00   0.0     0     0.00      0     0.0  0.00   0.0   0.220   0.000   26.4    30    0.00   703    1    100.0   30 
19/10/19 10:00p    7.5    7.8    7.5    87    5.5   0.0   ---  0.00   0.0   ---    7.5    7.5    7.5    5.7  1035.6  0.00   0.0     0     0.00      0     0.0  0.00   0.0   0.226   0.000   26.2    30    0.00   699    1    100.0   30 
19/10/19 10:30p    7.1    7.5    7.1    88    5.2   0.0   ---  0.00   0.0   ---    7.1    7.1    7.1    5.3  1035.9  0.00   0.0     0     0.00      0     0.0  0.00   0.0   0.235   0.000   26.0    30    0.00   702    1    100.0   30 
19/10/19 11:00p    7.3    7.3    7.0    89    5.6   0.0   ---  0.00   0.0   ---    7.3    7.4    7.4    5.6  1035.9  0.00   0.0     0     0.00      0     0.0  0.00   0.0   0.229   0.000   25.8    30    0.00   702    1    100.0   30 
19/10/19 11:30p    7.2    7.3    7.2    89    5.5   0.0   ---  0.00   0.0   ---    7.2    7.2    7.2    5.4  1036.1  0.00   0.0     0     0.00      0     0.0  0.00   0.0   0.233   0.000   25.7    30    0.00   700    1    100.0   30 
20/10/19 12:00a    6.8    7.2    6.8    90    5.3   0.0   ---  0.00   0.0   ---    6.8    6.9    6.9    5.1  1036.0  0.00   0.0     0     0.00      0     0.0  0.00   0.0   0.240   0.000   25.5    30    0.00   700    1    100.0   30 
20/10/19 12:30a    6.6    6.8    6.6    90    5.1   0.0   ---  0.00   0.0   ---    6.6    6.7    6.7    4.9  1036.0  0.00   0.0     0     0.00      0     0.0  0.00   0.0   0.244   0.000   25.4    30    0.00   700    1    100.0   30 
20/10/19  1:00a    6.6    6.7    6.5    90    5.0   0.0   ---  0.00   0.0   ---    6.6    6.6    6.6    4.8  1036.1  0.00   0.0     0     0.00      0     0.0  0.00   0.0   0.245   0.000   25.2    30    0.00   701    1    100.0   30 
20/10/19  1:30a    6.3    6.6    6.3    90    4.8   0.0   ---  0.00   0.0   ---    6.3    6.3    6.3    4.5  1036.1  0.00   0.0     0     0.00      0     0.0  0.00   0.0   0.250   0.000   25.1    30    0.00   700    1    100.0   30 
20/10/19  2:00a    6.2    6.3    6.2    91    4.9   0.0   ---  0.00   0.0   ---    6.2    6.2    6.2    4.4  1035.9  0.00   0.0     0     0.00      0     0.0  0.00   0.0   0.252   0.000   25.0    30    0.00   700    1    100.0   30 
20/10/19  2:30a    6.5    6.5    6.2    92    5.3   0.0   ---  0.00   0.0   ---    6.5    6.6    6.6    4.8  1035.9  0.00   0.0     0     0.00      0     0.0  0.00   0.0   0.247   0.000   24.9    30    0.00   700    1    100.0   30 
20/10/19  3:00a    6.4    6.6    6.4    91    5.1   0.0   ---  0.00   0.0   ---    6.4    6.5    6.5    4.7  1036.0  0.00   0.0     0     0.00      0     0.0  0.00   0.0   0.248   0.000   24.8    30    0.00   703    1    100.0   30 
20/10/19  3:30a    6.8    6.9    6.4    92    5.6   0.0   ---  0.00   0.0   ---    6.8    6.9    6.9    5.1  1036.1  0.00   0.0     0     0.00      0     0.0  0.00   0.0   0.240   0.000   24.8    30    0.00   674    1     98.5   30 
20/10/19  4:00a    6.9    6.9    6.8    92    5.7   0.0   ---  0.00   0.0   ---    6.9    6.9    6.9    5.2  1036.3  0.00   0.0     0     0.00      0     0.0  0.00   0.0   0.238   0.000   24.7    30    0.00   700    1    100.0   30 
20/10/19  4:30a    7.2    7.2    6.9    92    6.0   0.0   ---  0.00   0.0   ---    7.2    7.2    7.2    5.4  1036.6  0.00   0.0     0     0.00      0     0.0  0.00   0.0   0.233   0.000   24.7    30    0.00   681    1     99.6   30 
20/10/19  5:00a    7.5    7.5    7.2    92    6.3   0.0   ---  0.00   0.0   ---    7.5    7.6    7.6    5.9  1036.8  0.00   0.0     0     0.00      0     0.0  0.00   0.0   0.226   0.000   24.7    31    0.00   701    1    100.0   30 
20/10/19  5:30a    7.8    7.8    7.5    91    6.4   0.0   ---  0.00   0.0   ---    7.8    7.8    7.8    6.1  1036.9  0.00   0.0     0     0.00      0     0.0  0.00   0.0   0.220   0.000   24.7    31    0.00   667    1     97.5   30 
20/10/19  6:00a    8.4    8.4    7.8    92    7.2   0.0   NNW  0.00   1.6   NNW    8.4    8.5    8.5    6.9  1037.3  0.00   0.0    14     0.60     35     0.0  0.00   0.0   0.207   0.000   24.7    31    0.00   702    1    100.0   30 
20/10/19  6:30a    9.5    9.5    8.4    91    8.1   0.0    NW  0.00   8.0    NW    9.5    9.7    9.7    8.3  1037.8  0.00   0.0    29     1.25     40     0.0  0.00   0.0   0.184   0.000   24.7    31    0.00   703    1    100.0   30 
20/10/19  7:00a    9.8    9.8    9.5    92    8.6   0.0   WNW  0.00  11.3   WNW    9.8   10.1   10.1    9.6  1038.1  0.00   0.0    93     4.00    134     0.0  0.00   0.0   0.177   0.000   24.7    31    0.03   699    1    100.0   30 
20/10/19  7:30a   10.3   10.4    9.8    91    8.9   0.0   WNW  0.00  12.9   WNW   10.3   10.5   10.5   12.8  1038.3  0.00   0.0   168     7.22    211     0.0  0.00   0.0   0.167   0.000   24.8    31    0.00   701    1    100.0   30 
20/10/19  8:00a   11.8   11.8   10.4    84    9.2   0.0     W  0.00  17.7     W   11.8   11.7   11.7   15.7  1038.5  0.00   0.0   280    12.04    666     0.5  0.11   1.2   0.137   0.000   24.9    31    0.10   703    1    100.0   30 
20/10/19  8:30a   12.4   12.4   11.8    76    8.3   1.6     W  0.80  22.5     W   12.4   12.1   12.1   15.2  1038.8  0.00   0.0   222     9.55    334     0.6  0.13   0.8   0.124   0.000   25.1    31    0.00   700    1    100.0   30 
20/10/19  9:00a   12.8   12.8   12.3    73    8.1   1.6    SW  0.80  25.7   WNW   12.8   12.5   12.5   16.0  1039.1  0.00   0.0   273    11.74    352     1.0  0.21   1.3   0.115   0.000   25.3    31    0.13   702    1    100.0   30 
20/10/19  9:30a   13.5   13.7   12.8    68    7.7   1.6    SW  0.80  22.5     W   13.5   13.0   13.0   17.5  1039.2  0.25   0.0   386    16.60    527     1.7  0.36   2.2   0.101   0.000   25.4    31    0.00   700    1    100.0   30 
20/10/19 10:00a   13.8   13.8   13.5    67    7.8   1.6   SSW  0.80  29.0   SSW   13.8   13.3   13.3   16.9  1039.2  0.00   0.0   334    14.36    510     1.6  0.34   2.2   0.095   0.000   25.6    31    0.18   679    1     99.3   30 
20/10/19 10:30a   14.4   14.4   13.8    61    7.0   1.6     W  0.80  22.5   SSW   14.4   13.8   13.8   17.2  1039.3  0.00   0.0   333    14.32    497     2.0  0.43   4.7   0.081   0.000   25.8    32    0.00   701    1    100.0   30 
20/10/19 11:00a   14.8   14.8   14.4    59    6.8   1.6    SW  0.80  22.5    SW   14.8   14.0   14.0   17.8  1039.3  0.00   0.0   387    16.64    640     2.3  0.49   3.4   0.074   0.000   25.9    32    0.20   700    1    100.0   30 
20/10/19 11:30a   15.6   15.7   14.8    58    7.3   3.2    SW  1.61  22.5   SSW   15.6   14.8   14.8   19.7  1038.9  0.00   0.0   513    22.06   1107     3.4  0.73   5.7   0.058   0.000   26.2    31    0.00   702    1    100.0   30 
20/10/19 12:00p   15.9   15.9   15.3    58    7.6   4.8    SW  2.41  29.0   SSE   15.9   15.1   15.1   19.3  1038.9  0.00   0.0   431    18.54    810     3.0  0.64   4.7   0.051   0.000   26.4    31    0.30   700    1    100.0   30 
20/10/19 12:30p   16.0   16.1   15.8    57    7.5   1.6    SW  0.80  20.9   SSW   16.0   15.2   15.2   19.1  1039.1  0.00   0.0   404    17.37    517     2.6  0.56   3.4   0.049   0.000   26.6    31    0.00   702    1    100.0   30 
20/10/19  1:00p   15.6   16.3   15.6    60    7.9   1.6   WSW  0.80  30.6   SSE   15.6   14.9   14.9   17.6  1039.2  0.00   0.0   298    12.82    571     2.1  0.45   4.7   0.057   0.000   26.7    31    0.20   697    1    100.0   30 
20/10/19  1:30p   15.9   16.1   15.6    59    7.9   1.6   SSE  0.80  24.1   SSE   15.9   15.2   15.2   18.2  1039.4  0.00   0.0   310    13.33    571     1.9  0.41   3.7   0.050   0.000   26.9    31    0.00   702    1    100.0   30 
20/10/19  2:00p   15.6   15.9   15.4    62    8.3   1.6     S  0.80  30.6   SSE   15.6   14.9   14.9   16.9  1039.4  0.00   0.0   228     9.81    357     1.2  0.26   1.9   0.058   0.000   27.0    31    0.15   702    1    100.0   30 
20/10/19  2:30p   15.4   15.6   15.3    63    8.4   1.6    SW  0.80  24.1     S   15.4   14.8   14.8   16.6  1039.3  0.00   0.0   203     8.73    295     1.0  0.21   1.5   0.061   0.000   27.0    31    0.00   699    1    100.0   30 
20/10/19  3:00p   16.0   16.0   15.4    60    8.2   0.0     S  0.00  25.7   SSE   16.0   15.3   15.3   18.1  1039.3  0.00   0.0   260    11.18    367     1.2  0.26   1.8   0.049   0.000   27.1    31    0.13   700    1    100.0   30 
20/10/19  3:30p   15.8   16.1   15.8    60    8.0   1.6   WSW  0.80  32.2   SSE   15.8   15.1   15.1   17.4  1039.5  0.00   0.0   220     9.46    287     0.9  0.19   1.2   0.053   0.000   27.2    31    0.00   676    1     98.8   30 
20/10/19  4:00p   15.6   15.8   15.6    63    8.6   1.6   WSW  0.80  30.6   SSE   15.6   15.0   15.0   17.8  1039.5  0.00   0.0   226     9.72    288     0.7  0.15   0.9   0.057   0.000   27.2    31    0.13   703    1    100.0   30 
20/10/19  4:30p   15.6   16.0   15.6    64    8.8   1.6    SW  0.80  20.9    SW   15.6   15.0   15.0   17.5  1039.8  0.00   0.0   187     8.04    297     0.4  0.09   0.9   0.058   0.000   27.2    31    0.00   701    1    100.0   30 
20/10/19  5:00p   14.9   15.6   14.9    67    8.9   1.6   WSW  0.80  33.8     S   14.9   14.4   14.4   15.3  1040.0  0.00   0.0    90     3.87    120     0.0  0.00   0.0   0.071   0.000   27.2    31    0.08   702    1    100.0   30 
20/10/19  5:30p   14.8   15.1   14.8    67    8.8   1.6    SW  0.80  27.4   SSE   14.8   14.3   14.3   15.1  1040.2  0.00   0.0    75     3.23    113     0.0  0.00   0.0   0.073   0.000   27.2    31    0.00   699    1    100.0   30 
20/10/19  6:00p   14.4   14.8   14.4    70    9.0   1.6     S  0.80  24.1     S   14.4   14.0   14.0   12.8  1040.7  0.00   0.0    25     1.08     32     0.0  0.00   0.0   0.081   0.000   27.2    31    0.03   701    1    100.0   30 
20/10/19  6:30p   14.1   14.4   14.1    72    9.1   0.0     S  0.00  12.9   SSW   14.1   13.7   13.7   12.3  1041.0  0.00   0.0    11     0.47     21     0.0  0.00   0.0   0.088   0.000   27.2    31    0.00   700    1    100.0   30 
20/10/19  7:00p   13.9   14.1   13.9    73    9.1   0.0   ---  0.00   0.0   ---   13.9   13.6   13.6   12.0  1041.4  0.00   0.0     0     0.00      0     0.0  0.00   0.0   0.093   0.000   27.1    31    0.00   702    1    100.0   30 
20/10/19  7:30p   13.7   13.9   13.7    74    9.2   0.0     S  0.00   9.7     S   13.7   13.4   13.4   11.8  1041.7  0.00   0.0     0     0.00      0     0.0  0.00   0.0   0.096   0.000   27.1    31    0.00   700    1    100.0   30 
20/10/19  8:00p   13.4   13.7   13.4    77    9.5   0.0     S  0.00  11.3     S   13.4   13.2   13.2   11.6  1042.2  0.00   0.0     0     0.00      0     0.0  0.00   0.0   0.102   0.000   27.0    31    0.03   701    1    100.0   30 
20/10/19  8:30p   13.3   13.5   13.3    79    9.7   0.0   ---  0.00   0.0   ---   13.3   13.1   13.1   11.5  1042.2  0.00   0.0     0     0.00      0     0.0  0.00   0.0   0.105   0.000   26.9    32    0.00   701    1    100.0   30 
20/10/19  9:00p   13.2   13.3   13.2    80    9.8   0.0   ---  0.00   0.0   ---   13.2   13.0   13.0   11.4  1042.3  0.00   0.0     0     0.00      0     0.0  0.00   0.0   0.108   0.000   26.9    32    0.03   702    1    100.0   30 
20/10/19  9:30p   13.0   13.2   12.9    75    8.7   0.0     S  0.00   8.0     S   13.0   12.7   12.7   11.2  1042.4  0.00   0.0     0     0.00      0     0.0  0.00   0.0   0.111   0.000   26.8    32    0.00   700    1    100.0   30 
20/10/19 10:00p   13.0   13.1   13.0    74    8.5   0.0   ---  0.00   0.0   ---   13.0   12.7   12.7   11.1  1042.3  0.00   0.0     0     0.00      0     0.0  0.00   0.0   0.111   0.000   26.8    32    0.03   698    1    100.0   30 
20/10/19 10:30p   12.9   13.0   12.9    75    8.6   0.0     S  0.00   1.6     S   12.9   12.7   12.7   11.1  1042.2  0.00   0.0     0     0.00      0     0.0  0.00   0.0   0.112   0.000   26.7    32    0.00   699    1    100.0   30 
20/10/19 11:00p   12.8   12.9   12.8    76    8.7   0.0   ---  0.00   0.0   ---   12.8   12.6   12.6   11.0  1042.2  0.00   0.0     0     0.00      0     0.0  0.00   0.0   0.115   0.000   26.7    32    0.03   672    1     98.2   30 
20/10/19 11:30p   12.7   12.8   12.7    75    8.3   0.0     S  0.00   9.7     S   12.7   12.4   12.4   10.8  1042.3  0.00   0.0     0     0.00      0     0.0  0.00   0.0   0.118   0.000   26.6    32    0.00   702    1    100.0   30 
21/10/19 12:00a   12.6   12.7   12.6    75    8.2   0.0   ---  0.00   0.0   ---   12.6   12.3   12.3   10.7  1042.4  0.00   0.0     0     0.00      0     0.0  0.00   0.0   0.120   0.000   26.6    32    0.03   702    1    100.0   30 
21/10/19 12:30a   12.4   12.6   12.4    76    8.3   0.0   ---  0.00   0.0   ---   12.4   12.2   12.2   10.6  1042.0  0.00   0.0     0     0.00      0     0.0  0.00   0.0   0.123   0.000   26.5    32    0.00   701    1    100.0   30 
21/10/19  1:00a   12.3   12.4   12.3    78    8.6   0.0   ---  0.00   0.0   ---   12.3   12.1   12.1   10.6  1041.7  0.00   0.0     0     0.00      0     0.0  0.00   0.0   0.125   0.000   26.5    32    0.03   701    1    100.0   30 
21/10/19  1:30a   12.2   12.3   12.2    78    8.5   0.0   SSW  0.00  12.9   SSW   12.2   12.0   12.0   10.4  1041.4  0.00   0.0     0     0.00      0     0.0  0.00   0.0   0.127   0.000   26.5    32    0.00   682    1     99.7   30 
21/10/19  2:00a   12.1   12.2   12.1    78    8.3   0.0   SSW  0.00  14.5   SSW   12.1   11.8   11.8   10.3  1041.3  0.00   0.0     0     0.00      0     0.0  0.00   0.0   0.131   0.000   26.4    32    0.03   701    1    100.0   30 
21/10/19  2:30a   11.9   12.1   11.9    77    8.0   0.0   ---  0.00   0.0   ---   11.9   11.7   11.7   10.1  1041.2  0.00   0.0     0     0.00      0     0.0  0.00   0.0   0.133   0.000   26.4    32    0.00   698    1    100.0   30 
21/10/19  3:00a   11.8   11.9   11.8    76    7.7   0.0   SSW  0.00  14.5   SSW   11.8   11.5   11.5    9.9  1041.1  0.00   0.0     0     0.00      0     0.0  0.00   0.0   0.137   0.000   26.3    32    0.03   679    1     99.3   30 
21/10/19  3:30a   11.7   11.8   11.7    77    7.8   0.0    SW  0.00  16.1    SW   11.7   11.4   11.4    9.8  1041.4  0.00   0.0     0     0.00      0     0.0  0.00   0.0   0.139   0.000   26.3    32    0.00   701    1    100.0   30 
21/10/19  4:00a   11.4   11.7   11.4    78    7.7   0.0   WSW  0.00  22.5   WSW   11.4   11.3   11.3    9.7  1041.5  0.00   0.0     0     0.00      0     0.0  0.00   0.0   0.144   0.000   26.2    32    0.03   702    1    100.0   30 
21/10/19  4:30a   11.4   11.4   11.4    78    7.7   0.0   ---  0.00   0.0   ---   11.4   11.2   11.2    9.6  1041.6  0.00   0.0     0     0.00      0     0.0  0.00   0.0   0.145   0.000   26.2    32    0.00   701    1    100.0   30 
21/10/19  5:00a   11.3   11.4   11.3    79    7.8   0.0   ---  0.00   0.0   ---   11.3   11.1   11.1    9.5  1041.8  0.00   0.0     0     0.00      0     0.0  0.00   0.0   0.147   0.000   26.2    32    0.03   682    1     99.7   30 
21/10/19  5:30a   11.2   11.3   11.2    79    7.7   0.0   ---  0.00   0.0   ---   11.2   11.1   11.1    9.4  1041.9  0.00   0.0     0     0.00      0     0.0  0.00   0.0   0.148   0.000   26.1    32    0.00   701    1    100.0   30 
21/10/19  6:00a   11.3   11.3   11.2    78    7.6   0.0   ---  0.00   0.0   ---   11.3   11.2   11.2    9.6  1042.3  0.00   0.0     7     0.30     14     0.0  0.00   0.0   0.146   0.000   26.1    32    0.00   703    1    100.0   30 
21/10/19  6:30a   11.5   11.5   11.3    78    7.8   0.0   ---  0.00   0.0   ---   11.5   11.3   11.3   10.0  1042.5  0.00   0.0    22     0.95     28     0.0  0.00   0.0   0.142   0.000   26.0    32    0.00   702    1    100.0   30 
21/10/19  7:00a   11.6   11.6   11.5    77    7.7   0.0   WSW  0.00   6.4   WSW   11.6   11.3   11.3   10.3  1042.7  0.00   0.0    46     1.98     62     0.0  0.00   0.0   0.141   0.000   26.0    32    0.03   700    1    100.0   30 
21/10/19  7:30a   11.8   11.8   11.6    76    7.7   0.0   WSW  0.00  12.9   WSW   11.8   11.5   11.5   12.3  1043.0  0.00   0.0    83     3.57     95     0.0  0.00   0.0   0.137   0.000   26.7    32    0.00   701    1    100.0   30 
21/10/19  8:00a   12.0   12.1   11.8    76    7.9   0.0   WSW  0.00   3.2   WSW   12.0   11.7   11.7   12.9  1042.9  0.00   0.0   107     4.60    127     0.0  0.00   0.0   0.132   0.000   27.7    32    0.05   699    1    100.0   30 
21/10/19  8:30a   12.3   12.3   12.0    77    8.4   0.0   ---  0.00   0.0   ---   12.3   12.1   12.1   13.8  1042.9  0.00   0.0   146     6.28    169     0.2  0.04   0.6   0.126   0.000   28.1    32    0.00   701    1    100.0   30 
21/10/19  9:00a   12.7   12.7   12.3    75    8.3   0.0   WSW  0.00   1.6   WSW   12.7   12.4   12.4   15.0  1042.6  0.00   0.0   216     9.29    262     0.9  0.19   1.2   0.118   0.000   28.2    32    0.00   700    1    100.0   30 
21/10/19  9:30a   13.2   13.2   12.7    74    8.6   0.0   WSW  0.00  16.1   WSW   13.2   12.8   12.8   16.1  1042.8  0.00   0.0   283    12.17    309     1.3  0.28   1.5   0.108   0.000   28.4    33    0.10   702    1    100.0   30 
21/10/19 10:00a   13.5   13.6   13.0    72    8.5   0.0   SSW  0.00  19.3    SW   13.5   13.1   13.1   16.9  1042.6  0.00   0.0   346    14.88    397     1.8  0.39   2.2   0.101   0.000   28.7    32    0.15   701    1    100.0   30 
21/10/19 10:30a   14.4   14.4   13.4    69    8.8   0.0   SSW  0.00  12.9   SSW   14.4   13.9   13.9   18.9  1042.5  0.00   0.0   488    20.99    636     2.8  0.60   3.6   0.082   0.000   29.2    31    0.00   701    1    100.0   30 
21/10/19 11:00a   14.8   14.9   14.3    68    9.0   0.0   SSW  0.00  22.5   SSW   14.8   14.4   14.4   19.5  1042.1  0.00   0.0   523    22.49   1114     3.9  0.84   5.6   0.073   0.000   29.6    31    0.28   699    1    100.0   30 
21/10/19 11:30a   15.9   15.9   14.7    65    9.4   1.6     S  0.80  24.1     S   15.9   15.5   15.5   22.4  1041.8  0.00   0.0   967    41.59   1107     5.3  1.14   5.9   0.050   0.000   28.9    32    0.00   701    1    100.0   30 
21/10/19 12:00p   15.9   16.2   15.8    65    9.3   4.8   WSW  2.41  24.1   SSE   15.9   15.4   15.4   20.9  1041.8  0.00   0.0   808    34.75   1111     5.3  1.14   6.4   0.051   0.000   28.5    32    0.46   701    1    100.0   30 
21/10/19 12:30p   15.9   16.6   15.9    66    9.6   3.2     S  1.61  33.8     S   15.9   15.5   15.5   22.0  1041.6  0.00   0.0   962    41.37   1090     5.5  1.18   6.1   0.050   0.000   28.4    32    0.00   698    1    100.0   30 
21/10/19  1:00p   16.5   16.5   15.9    64    9.7   4.8     S  2.41  35.4     S   16.5   16.1   16.1   22.6  1041.5  0.00   0.0   947    40.73    990     5.6  1.20   5.8   0.038   0.000   28.3    33    0.51   700    1    100.0   30 
21/10/19  1:30p   17.3   17.3   16.4    61    9.7   1.6     S  0.80  22.5   SSE   17.3   16.7   16.7   22.9  1041.3  0.00   0.0   889    38.23    921     5.2  1.11   5.5   0.022   0.000   28.3    33    0.00   702    1    100.0   30 
21/10/19  2:00p   17.6   17.7   17.2    57    9.0   3.2     S  1.61  29.0   SSE   17.6   16.9   16.9   23.2  1040.8  0.00   0.0   841    36.17    865     4.7  1.01   4.9   0.015   0.000   28.3    33    0.48   702    1    100.0   30 
21/10/19  2:30p   18.1   18.3   17.6    57    9.4   3.2   SSE  1.61  20.9   SSE   18.1   17.4   17.4   23.7  1040.4  0.00   0.0   783    33.67    814     4.0  0.86   4.3   0.006   0.000   28.2    33    0.00   702    1    100.0   30 
21/10/19  3:00p   19.1   19.1   18.1    54    9.6   3.2   ESE  1.61  22.5   ESE   19.1   18.5   18.5   24.8  1039.9  0.00   0.0   710    30.53    745     3.3  0.71   3.6   0.000   0.016   28.2    33    0.43   700    1    100.0   30 
21/10/19  3:30p   19.1   19.3   18.9    53    9.3   3.2   SSE  1.61  24.1   SSE   19.1   18.4   18.4   24.6  1039.7  0.00   0.0   627    26.96    671     2.5  0.54   2.9   0.000   0.015   28.2    33    0.00   699    1    100.0   30 
21/10/19  4:00p   19.0   19.1   18.8    55    9.8   3.2   SSE  1.61  25.7   SSE   19.0   18.4   18.4   24.4  1039.6  0.00   0.0   534    22.96    582     1.8  0.39   2.1   0.000   0.014   28.3    33    0.36   700    1    100.0   30 
21/10/19  4:30p   18.8   19.0   18.3    54    9.3   4.8   SSE  2.41  24.1   SSE   18.8   18.2   18.2   23.8  1039.6  0.00   0.0   434    18.66    483     1.2  0.26   1.5   0.000   0.010   28.2    33    0.00   703    1    100.0   30 
21/10/19  5:00p   18.4   18.8   18.3    56    9.4   3.2     S  1.61  27.4   SSE   18.4   17.8   17.8   22.7  1039.5  0.00   0.0   327    14.06    380     0.7  0.15   0.9   0.000   0.001   28.2    32    0.23   699    1    100.0   30 
21/10/19  5:30p   18.1   18.4   18.1    59   10.0   1.6     S  0.80  17.7     S   18.1   17.6   17.6   20.9  1039.5  0.00   0.0   215     9.25    271     0.1  0.02   0.5   0.005   0.000   28.2    32    0.00   702    1    100.0   30 
21/10/19  6:00p   17.1   18.1   17.1    61    9.5   0.0     S  0.00   9.7     S   17.1   16.5   16.5   15.7  1039.7  0.00   0.0    83     3.57    153     0.0  0.00   0.0   0.027   0.000   28.2    32    0.10   700    1    100.0   30 
21/10/19  6:30p   15.8   17.1   15.8    65    9.3   0.0   ---  0.00   0.0   ---   15.8   15.3   15.3   13.7  1039.7  0.00   0.0    16     0.69     23     0.0  0.00   0.0   0.052   0.000   28.2    32    0.00   703    1    100.0   30 
21/10/19  7:00p   14.8   15.8   14.8    69    9.1   0.0   ---  0.00   0.0   ---   14.8   14.3   14.3   12.6  1039.9  0.00   0.0     2     0.09      9     0.0  0.00   0.0   0.074   0.000   28.1    32    0.00   700    1    100.0   30 
21/10/19  7:30p   13.9   14.8   13.9    72    9.0   0.0   ---  0.00   0.0   ---   13.9   13.6   13.6   11.7  1040.2  0.00   0.0     0     0.00      0     0.0  0.00   0.0   0.091   0.000   28.2    32    0.00   701    1    100.0   30 
21/10/19  8:00p   13.4   13.9   13.4    76    9.3   0.0   ---  0.00   0.0   ---   13.4   13.2   13.2   11.3  1040.5  0.00   0.0     0     0.00      0     0.0  0.00   0.0   0.102   0.000   28.2    32    0.03   702    1    100.0   30 
21/10/19  8:30p   12.8   13.4   12.8    81    9.6   0.0   ---  0.00   0.0   ---   12.8   12.6   12.6   10.8  1040.7  0.00   0.0     0     0.00      0     0.0  0.00   0.0   0.116   0.000   28.1    32    0.00   700    1    100.0   30 
21/10/19  9:00p   12.2   12.8   12.2    83    9.4   0.0   ---  0.00   0.0   ---   12.2   12.1   12.1   10.3  1040.9  0.00   0.0     0     0.00      0     0.0  0.00   0.0   0.127   0.000   27.9    32    0.03   681    1     99.6   30 
21/10/19  9:30p   11.4   12.2   11.4    85    9.0   0.0   ---  0.00   0.0   ---   11.4   11.4   11.4    9.6  1040.9  0.00   0.0     0     0.00      0     0.0  0.00   0.0   0.145   0.000   27.8    32    0.00   701    1    100.0   30 
21/10/19 10:00p   10.9   11.4   10.9    88    9.0   0.0   ---  0.00   0.0   ---   10.9   11.0   11.0    9.2  1040.7  0.00   0.0     0     0.00      0     0.0  0.00   0.0   0.154   0.000   27.7    32    0.00   701    1    100.0   30 
21/10/19 10:30p   10.7   10.9   10.7    89    8.9   0.0   ---  0.00   0.0   ---   10.7   10.8   10.8    8.9  1040.8  0.00   0.0     0     0.00      0     0.0  0.00   0.0   0.160   0.000   27.4    32    0.00   700    1    100.0   30 
21/10/19 11:00p   10.3   10.7   10.3    89    8.5   0.0   ---  0.00   0.0   ---   10.3   10.4   10.4    8.6  1040.5  0.00   0.0     0     0.00      0     0.0  0.00   0.0   0.168   0.000   27.2    32    0.00   699    1    100.0   30 
21/10/19 11:30p   10.5   10.5   10.2    90    8.9   0.0   ---  0.00   0.0   ---   10.5   10.6   10.6    8.8  1040.4  0.00   0.0     0     0.00      0     0.0  0.00   0.0   0.163   0.000   27.1    32    0.00   702    1    100.0   30 
22/10/19 12:00a   10.9   10.9   10.5    90    9.3   0.0   ---  0.00   0.0   ---   10.9   11.0   11.0    9.2  1040.3  0.00   0.0     0     0.00      0     0.0  0.00   0.0   0.155   0.000   27.0    33    0.00   701    1    100.0   30 
22/10/19 12:30a   11.1   11.1   10.9    90    9.5   0.0   ---  0.00   0.0   ---   11.1   11.2   11.2    9.4  1039.9  0.00   0.0     0     0.00      0     0.0  0.00   0.0   0.152   0.000   26.9    33    0.00   700    1    100.0   30 
22/10/19  1:00a   11.1   11.1   11.1    89    9.4   0.0   ---  0.00   0.0   ---   11.1   11.2   11.2    9.4  1039.8  0.00   0.0     0     0.00      0     0.0  0.00   0.0   0.150   0.000   26.8    33    0.00   681    1     99.6   30 
22/10/19  1:30a   11.2   11.2   11.1    89    9.4   0.0   ---  0.00   0.0   ---   11.2   11.2   11.2    9.4  1039.4  0.00   0.0     0     0.00      0     0.0  0.00   0.0   0.149   0.000   26.8    33    0.00   703    1    100.0   30 
22/10/19  2:00a   11.2   11.3   11.2    88    9.3   0.0   ---  0.00   0.0   ---   11.2   11.3   11.3    9.4  1039.3  0.00   0.0     0     0.00      0     0.0  0.00   0.0   0.148   0.000   26.8    33    0.00   681    1     99.6   30 
22/10/19  2:30a   11.3   11.3   11.2    87    9.2   0.0   ---  0.00   0.0   ---   11.3   11.3   11.3    9.5  1039.3  0.00   0.0     0     0.00      0     0.0  0.00   0.0   0.146   0.000   26.7    33    0.00   702    1    100.0   30 
22/10/19  3:00a   11.3   11.3   11.3    87    9.2   0.0     S  0.00   9.7     S   11.3   11.3   11.3    9.4  1039.0  0.00   0.0     0     0.00      0     0.0  0.00   0.0   0.147   0.000   26.7    33    0.00   701    1    100.0   30 
22/10/19  3:30a   11.3   11.3   11.3    86    9.0   0.0   ---  0.00   0.0   ---   11.3   11.3   11.3    9.4  1039.0  0.00   0.0     0     0.00      0     0.0  0.00   0.0   0.147   0.000   26.6    33    0.00   658    1     96.2   30 
22/10/19  4:00a   11.3   11.3   11.2    87    9.2   0.0   ---  0.00   0.0   ---   11.3   11.3   11.3    9.4  1039.0  0.00   0.0     0     0.00      0     0.0  0.00   0.0   0.147   0.000   26.5    33    0.00   701    1    100.0   30 
22/10/19  4:30a   11.1   11.3   11.1    87    9.0   0.0   ---  0.00   0.0   ---   11.1   11.1   11.1    9.3  1039.1  0.00   0.0     0     0.00      0     0.0  0.00   0.0   0.152   0.000   26.5    33    0.00   698    1    100.0   30 
22/10/19  5:00a   11.1   11.1   10.9    86    8.8   0.0   ---  0.00   0.0   ---   11.1   11.1   11.1    9.2  1039.4  0.00   0.0     0     0.00      0     0.0  0.00   0.0   0.152   0.000   26.5    33    0.00   702    1    100.0   30 
22/10/19  5:30a   11.1   11.1   11.0    86    8.8   0.0   ---  0.00   0.0   ---   11.1   11.1   11.1    9.2  1039.5  0.00   0.0     0     0.00      0     0.0  0.00   0.0   0.152   0.000   26.4    33    0.00   701    1    100.0   30 
22/10/19  6:00a   11.2   11.2   11.1    87    9.1   0.0   ---  0.00   0.0   ---   11.2   11.2   11.2    9.5  1039.8  0.00   0.0     8     0.34     18     0.0  0.00   0.0   0.149   0.000   26.4    33    0.00   701    1    100.0   30 
22/10/19  6:30a   11.2   11.2   11.1    85    8.7   0.0   ---  0.00   0.0   ---   11.2   11.2   11.2    9.7  1040.1  0.00   0.0    31     1.33     49     0.0  0.00   0.0   0.149   0.000   26.3    33    0.00   700    1    100.0   30 
22/10/19  7:00a   11.5   11.5   11.2    83    8.7   0.0   ---  0.00   0.0   ---   11.5   11.4   11.4   10.3  1040.3  0.00   0.0    64     2.75     79     0.0  0.00   0.0   0.142   0.000   26.2    34    0.03   701    1    100.0   30 
22/10/19  7:30a   11.7   11.7   11.5    81    8.6   0.0   ---  0.00   0.0   ---   11.7   11.6   11.6   12.9  1040.3  0.00   0.0   107     4.60    148     0.0  0.00   0.0   0.138   0.000   25.6    34    0.00   700    1    100.0   30 
22/10/19  8:00a   12.1   12.1   11.7    80    8.7   0.0   ---  0.00   0.0   ---   12.1   11.9   11.9   14.1  1040.5  0.00   0.0   156     6.71    192     0.1  0.02   0.6   0.131   0.000   25.2    35    0.08   700    1    100.0   30 
22/10/19  8:30a   12.8   12.8   12.1    78    9.1   0.0   ---  0.00   0.0   ---   12.8   12.6   12.6   16.4  1040.5  0.00   0.0   268    11.53    336     0.9  0.19   1.2   0.115   0.000   25.3    35    0.00   703    1    100.0   30 
22/10/19  9:00a   13.7   13.7   12.8    75    9.4   0.0     S  0.00   3.2     S   13.7   13.4   13.4   18.4  1040.3  0.00   0.0   402    17.29    552     1.6  0.34   2.6   0.096   0.000   25.6    35    0.18   702    1    100.0   30 
22/10/19  9:30a   14.9   14.9   13.7    70    9.5   1.6   SSE  0.80  22.5   SSE   14.9   14.6   14.6   21.2  1040.0  0.00   0.0   673    28.94    780     2.8  0.60   3.3   0.071   0.000   26.2    36    0.00   701    1    100.0   30 
22/10/19 10:00a   15.8   15.8   14.9    67    9.7   0.0     N  0.00  19.3     N   15.8   15.3   15.3   22.5  1039.8  0.00   0.0   802    34.49    833     3.7  0.79   4.0   0.053   0.000   27.2    36    0.38   703    1    100.0   30 
22/10/19 10:30a   16.6   16.6   15.8    65    9.9   1.6   WSW  0.80  17.7     W   16.6   16.2   16.2   23.2  1039.5  0.00   0.0   863    37.11    888     4.3  0.92   4.6   0.037   0.000   27.4    35    0.00   701    1    100.0   30 
22/10/19 11:00a   17.4   17.4   16.6    61    9.8   0.0   SSW  0.00  16.1    SW   17.4   16.9   16.9   23.7  1039.0  0.00   0.0   911    39.18    932     4.9  1.05   5.1   0.019   0.000   27.6    35    0.48   702    1    100.0   30 
22/10/19 11:30a   18.9   18.9   17.4    55    9.7   0.0   SSW  0.00  11.3   SSW   18.9   18.3   18.3   25.0  1038.5  0.00   0.0   946    40.68    960     5.4  1.16   5.5   0.000   0.013   27.8    35    0.00   701    1    100.0   30 
22/10/19 12:00p   19.8   19.8   18.9    54   10.3   0.0   SSW  0.00  16.1   SSW   19.8   19.3   19.3   25.9  1038.0  0.00   0.0   964    41.46    969     5.6  1.20   5.7   0.000   0.031   28.1    36    0.53   702    1    100.0   30 
22/10/19 12:30p   21.3   21.3   19.8    50   10.5   0.0     S  0.00  14.5     S   21.3   20.4   20.4   26.9  1037.6  0.00   0.0   963    41.41    970     5.7  1.22   5.7   0.000   0.063   28.1    36    0.00   700    1    100.0   30 
22/10/19  1:00p   22.2   22.2   21.2    46   10.0   1.6     S  0.80  12.9     S   22.2   21.5   21.5   27.9  1037.3  0.00   0.0   945    40.64    956     5.5  1.18   5.7   0.000   0.081   28.1    36    0.56   702    1    100.0   30 
22/10/19  1:30p   23.3   23.3   22.2    41    9.3   3.2     S  1.61  19.3     S   23.3   22.9   22.9   29.3  1036.6  0.00   0.0   912    39.22    937     5.2  1.11   5.4   0.000   0.104   27.9    36    0.00   701    1    100.0   30 
22/10/19  2:00p   24.2   24.2   23.3    44   11.2   1.6     S  0.80  16.1     S   24.2   23.9   23.9   30.4  1036.2  0.00   0.0   862    37.07    891     4.6  0.99   4.9   0.000   0.123   28.1    36    0.56   702    1    100.0   30 
22/10/19  2:30p   24.6   24.6   23.7    40   10.1   4.8   SSW  2.41  20.9   SSW   24.6   24.1   24.1   30.5  1035.7  0.00   0.0   797    34.28    835     3.9  0.84   4.3   0.000   0.131   28.1    36    0.00   701    1    100.0   30 
22/10/19  3:00p   24.5   24.6   24.4    41   10.4   6.4   SSW  3.22  24.1   SSW   24.5   24.1   24.1   30.4  1035.3  0.00   0.0   720    30.96    758     3.2  0.69   3.5   0.000   0.128   28.2    36    0.53   700    1    100.0   30 
22/10/19  3:30p   24.3   24.6   24.3    39    9.4   9.7   SSW  4.83  25.7   SSW   24.3   23.8   23.8   30.1  1035.3  0.00   0.0   638    27.44    686     2.5  0.54   2.8   0.000   0.124   28.2    36    0.00   701    1    100.0   30 
22/10/19  4:00p   24.3   24.3   24.1    38    9.0   9.7     S  4.83  25.7     S   24.3   23.7   23.7   29.8  1035.2  0.00   0.0   541    23.27    589     1.8  0.39   2.1   0.000   0.124   28.1    37    0.46   701    1    100.0   30 
22/10/19  4:30p   24.0   24.3   24.0    38    8.8   8.0     S  4.02  20.9     S   24.0   23.4   23.4   29.2  1034.9  0.00   0.0   443    19.05    492     1.3  0.28   1.5   0.000   0.118   28.1    36    0.00   701    1    100.0   30 
22/10/19  5:00p   23.6   24.1   23.5    42    9.9   8.0     S  4.02  22.5     S   23.6   23.2   23.2   28.3  1035.0  0.00   0.0   336    14.45    390     0.8  0.17   1.0   0.000   0.110   28.2    37    0.33   701    1    100.0   30 
22/10/19  5:30p   22.9   23.7   22.9    41    9.0   4.8     S  2.41  19.3     S   22.9   22.3   22.3   25.8  1035.2  0.00   0.0   224     9.63    281     0.2  0.04   0.6   0.000   0.096   28.2    36    0.00   699    1    100.0   30 
22/10/19  6:00p   22.0   23.0   22.0    45    9.5   1.6     S  0.80  12.9     S   22.0   21.1   21.1   20.3  1035.2  0.00   0.0    87     3.74    160     0.0  0.00   0.0   0.000   0.076   28.2    36    0.13   697    1    100.0   30 
22/10/19  6:30p   20.2   22.0   20.2    54   10.6   0.0     S  0.00   4.8     S   20.2   19.6   19.6   18.1  1035.2  0.00   0.0    16     0.69     23     0.0  0.00   0.0   0.000   0.038   28.1    36    0.00   701    1    100.0   30 
22/10/19  7:00p   18.0   20.2   18.0    61   10.4   0.0   ---  0.00   0.0   ---   18.0   17.6   17.6   15.8  1035.5  0.00   0.0     2     0.09      9     0.0  0.00   0.0   0.007   0.000   27.9    35    0.03   701    1    100.0   30 
22/10/19  7:30p   16.3   17.9   16.3    66   10.0   0.0   ---  0.00   0.0   ---   16.3   15.9   15.9   14.2  1035.8  0.00   0.0     0     0.00      0     0.0  0.00   0.0   0.042   0.000   27.9    35    0.00   701    1    100.0   30 
22/10/19  8:00p   14.7   16.3   14.7    72    9.7   0.0   ---  0.00   0.0   ---   14.7   14.3   14.3   12.5  1035.9  0.00   0.0     0     0.00      0     0.0  0.00   0.0   0.076   0.000   28.2    34    0.03   702    1    100.0   30 
22/10/19  8:30p   13.2   14.7   13.2    77    9.2   0.0   ---  0.00   0.0   ---   13.2   12.9   12.9   11.1  1036.2  0.00   0.0     0     0.00      0     0.0  0.00   0.0   0.108   0.000   27.9    35    0.00   701    1    100.0   30 
22/10/19  9:00p   12.2   13.2   12.2    82    9.2   0.0   ---  0.00   0.0   ---   12.2   12.1   12.1   10.2  1036.3  0.00   0.0     0     0.00      0     0.0  0.00   0.0   0.128   0.000   28.1    34    0.00   698    1    100.0   30 
22/10/19  9:30p   11.2   12.2   11.2    84    8.6   0.0   ---  0.00   0.0   ---   11.2   11.2   11.2    9.3  1036.5  0.00   0.0     0     0.00      0     0.0  0.00   0.0   0.148   0.000   27.9    34    0.03   703    1    100.0   30 
22/10/19 10:00p   10.6   11.2   10.6    87    8.5   0.0   ---  0.00   0.0   ---   10.6   10.7   10.7    8.8  1036.4  0.00   0.0     0     0.00      0     0.0  0.00   0.0   0.161   0.000   27.8    34    0.00   698    1    100.0   30 
22/10/19 10:30p   10.0   10.6   10.0    88    8.1   0.0   ---  0.00   0.0   ---   10.0   10.1   10.1    8.2  1036.3  0.00   0.0     0     0.00      0     0.0  0.00   0.0   0.174   0.000   27.7    34    0.00   700    1    100.0   30 
22/10/19 11:00p    9.8   10.0    9.8    89    8.1   0.0   ---  0.00   0.0   ---    9.8    9.9    9.9    8.1  1036.1  0.00   0.0     0     0.00      0     0.0  0.00   0.0   0.178   0.000   27.6    34    0.00   699    1    100.0   30 
22/10/19 11:30p    8.9    9.8    8.9    89    7.2   0.0   ---  0.00   0.0   ---    8.9    9.1    9.1    7.2  1036.0  0.00   0.0     0     0.00      0     0.0  0.00   0.0   0.196   0.000   27.3    34    0.00   703    1    100.0   30 
23/10/19 12:00a    8.3    8.9    8.3    90    6.8   0.0   ---  0.00   0.0   ---    8.3    8.4    8.4    6.5  1036.0  0.00   0.0     0     0.00      0     0.0  0.00   0.0   0.208   0.000   27.1    33    0.00   702    1    100.0   30 
23/10/19 12:30a    8.4    8.4    8.2    92    7.2   0.0   ---  0.00   0.0   ---    8.4    8.6    8.6    6.6  1035.6  0.00   0.0     0     0.00      0     0.0  0.00   0.0   0.206   0.000   26.9    33    0.00   699    1    100.0   30 
23/10/19  1:00a    8.3    8.5    8.3    92    7.1   0.0   ---  0.00   0.0   ---    8.3    8.4    8.4    6.4  1035.2  0.00   0.0     0     0.00      0     0.0  0.00   0.0   0.209   0.000   26.7    33    0.00   702    1    100.0   30 
23/10/19  1:30a    7.9    8.3    7.9    92    6.7   0.0   ---  0.00   0.0   ---    7.9    8.1    8.1    6.1  1034.7  0.00   0.0     0     0.00      0     0.0  0.00   0.0   0.216   0.000   26.5    33    0.00   700    1    100.0   30 
23/10/19  2:00a    7.2    7.9    7.2    92    6.0   0.0   ---  0.00   0.0   ---    7.2    7.2    7.2    5.2  1034.5  0.00   0.0     0     0.00      0     0.0  0.00   0.0   0.233   0.000   26.3    33    0.00   702    1    100.0   30 
23/10/19  2:30a    6.4    7.2    6.4    92    5.2   0.0   ---  0.00   0.0   ---    6.4    6.4    6.4    4.4  1034.5  0.00   0.0     0     0.00      0     0.0  0.00   0.0   0.249   0.000   26.1    33    0.00   701    1    100.0   30 
23/10/19  3:00a    5.8    6.4    5.8    92    4.6   0.0   ---  0.00   0.0   ---    5.8    5.8    5.8    3.8  1034.6  0.00   0.0     0     0.00      0     0.0  0.00   0.0   0.260   0.000   25.9    33    0.00   675    1     98.7   30 
23/10/19  3:30a    5.3    5.8    5.3    93    4.3   0.0   ---  0.00   0.0   ---    5.3    5.3    5.3    3.3  1034.6  0.00   0.0     0     0.00      0     0.0  0.00   0.0   0.271   0.000   25.7    33    0.00   700    1    100.0   30 
23/10/19  4:00a    5.9    5.9    5.3    94    5.0   0.0   ---  0.00   0.0   ---    5.9    5.9    5.9    3.9  1034.7  0.00   0.0     0     0.00      0     0.0  0.00   0.0   0.259   0.000   25.6    33    0.00   699    1    100.0   30 
23/10/19  4:30a    5.8    5.9    5.7    94    4.9   0.0   ---  0.00   0.0   ---    5.8    5.9    5.9    3.9  1034.6  0.00   0.0     0     0.00      0     0.0  0.00   0.0   0.260   0.000   25.4    33    0.00   678    1     99.1   30 
23/10/19  5:00a    5.7    5.9    5.7    94    4.8   0.0   ---  0.00   0.0   ---    5.7    5.8    5.8    3.8  1034.6  0.25   0.0     0     0.00      0     0.0  0.00   0.0   0.263   0.000   25.2    33    0.00   675    1     98.7   30 
23/10/19  5:30a    5.5    5.8    5.5    94    4.6   0.0   ---  0.00   0.0   ---    5.5    5.6    5.6    3.6  1034.8  0.00   0.0     2     0.09      9     0.0  0.00   0.0   0.267   0.000   25.1    33    0.00   702    1    100.0   30 
23/10/19  6:00a    5.2    5.5    5.2    94    4.3   0.0   ---  0.00   0.0   ---    5.2    5.3    5.3    3.4  1034.8  0.00   0.0    17     0.73     25     0.0  0.00   0.0   0.273   0.000   25.0    33    0.00   700    1    100.0   30 
23/10/19  6:30a    6.2    6.2    5.2    95    5.4   0.0   ---  0.00   0.0   ---    6.2    6.2    6.2    4.9  1035.1  0.00   0.0    61     2.62    167     0.0  0.00   0.0   0.253   0.000   24.9    32    0.00   679    1     99.3   30 
23/10/19  7:00a    7.9    7.9    6.2    95    7.1   0.0   ---  0.00   0.0   ---    7.9    8.1    8.1    8.8  1035.4  0.00   0.0   221     9.50    272     0.0  0.00   0.0   0.218   0.000   24.8    32    0.05   703    1    100.0   30 
23/10/19  7:30a   10.1   10.1    7.9    96    9.5   0.0   ---  0.00   0.0   ---   10.1   10.4   10.4   16.2  1035.3  0.00   0.0   325    13.98    381     0.2  0.04   0.7   0.171   0.000   25.0    32    0.00   678    1     99.1   30 
23/10/19  8:00a   12.9   12.9   10.2    89   11.2   0.0   ---  0.00   0.0   ---   12.9   13.0   13.0   20.3  1035.2  0.00   0.0   449    19.31    501     1.0  0.21   1.3   0.112   0.000   24.7    33    0.18   702    1    100.0   30 
23/10/19  8:30a   15.9   15.9   12.9    75   11.5   0.0   ---  0.00   0.0   ---   15.9   15.7   15.7   23.4  1034.9  0.00   0.0   556    23.91    605     1.6  0.34   1.9   0.051   0.000   25.0    35    0.00   701    1    100.0   30 
23/10/19  9:00a   17.8   17.8   15.9    67   11.6   0.0     S  0.00  16.1     S   17.8   17.6   17.6   25.2  1034.8  0.00   0.0   652    28.04    698     2.3  0.49   2.6   0.012   0.000   25.8    36    0.30   701    1    100.0   30 
23/10/19  9:30a   20.6   20.6   17.8    58   12.1   0.0   ---  0.00   0.0   ---   20.6   20.2   20.2   27.8  1034.4  0.00   0.0   740    31.82    775     3.0  0.64   3.4   0.000   0.047   26.8    36    0.00   654    1     95.6   30 
23/10/19 10:00a   22.9   22.9   20.6    48   11.3   0.0     S  0.00   3.2     S   22.9   22.6   22.6   29.9  1034.2  0.00   0.0   815    35.05    847     3.8  0.81   4.1   0.000   0.096   27.2    36    0.46   701    1    100.0   30 
23/10/19 10:30a   24.6   24.6   22.9    37    8.9   0.0     S  0.00  11.3     S   24.6   24.1   24.1   31.1  1033.9  0.00   0.0   874    37.59    896     4.5  0.96   4.8   0.000   0.131   27.8    36    0.00   700    1    100.0   30 
23/10/19 11:00a   26.3   26.4   24.6    34    9.2   1.6     S  0.80  12.9     S   26.3   25.6   25.6   32.3  1033.4  0.00   0.0   916    39.39    937     5.1  1.09   5.4   0.000   0.167   27.9    35    0.56   700    1    100.0   30 
23/10/19 11:30a   27.5   27.5   26.3    29    7.9   3.2     S  1.61  17.7     S   27.5   26.3   26.3   32.9  1032.8  0.00   0.0   947    40.73    960     5.6  1.20   5.7   0.000   0.191   28.2    34    0.00   699    1    100.0   30 
23/10/19 12:00p   28.1   28.3   27.6    26    6.8   3.2    SW  1.61  19.3    SW   28.1   26.8   26.8   33.2  1032.5  0.00   0.0   961    41.33    965     5.8  1.24   5.8   0.000   0.204   28.1    33    0.66   698    1    100.0   30 
23/10/19 12:30p   28.8   28.8   28.2    25    6.8   9.7   SSW  4.83  27.4    SW   28.8   27.4   27.4   33.6  1032.0  0.00   0.0   956    41.11    965     5.8  1.24   5.8   0.000   0.218   27.9    32    0.00   703    1    100.0   30 
23/10/19  1:00p   28.8   28.9   28.7    21    4.3  11.3   SSW  5.63  27.4   SSW   28.8   27.2   27.2   33.2  1031.7  0.00   0.0   938    40.34    949     5.6  1.20   5.7   0.000   0.219   28.2    32    0.76   700    1    100.0   30 
23/10/19  1:30p   29.1   29.3   28.8    21    4.5  11.3    SW  5.63  25.7    SW   29.1   27.4   27.4   33.4  1031.3  0.00   0.0   905    38.92    921     5.2  1.11   5.4   0.000   0.225   28.3    31    0.00   679    1     99.3   30 
23/10/19  2:00p   29.9   29.9   29.1    21    5.2   9.7   SSW  4.83  35.4   SSW   29.9   28.2   28.2   34.2  1031.0  0.00   0.0   850    36.55    881     4.6  0.99   4.9   0.000   0.242   28.4    30    0.71   702    1    100.0   30 
23/10/19  2:30p   29.8   30.1   29.7    21    5.1   9.7   SSW  4.83  25.7   SSW   29.8   28.1   28.1   34.1  1030.5  0.00   0.0   787    33.85    819     3.9  0.84   4.2   0.000   0.240   28.7    29    0.00   702    1    100.0   30 
23/10/19  3:00p   30.1   30.1   29.8    20    4.6   9.7   SSW  4.83  20.9   SSW   30.1   28.3   28.3   34.2  1030.2  0.00   0.0   710    30.53    751     3.2  0.69   3.5   0.000   0.244   28.8    28    0.63   701    1    100.0   30 
23/10/19  3:30p   30.0   30.2   29.7    20    4.6   9.7   SSW  4.83  20.9   SSW   30.0   28.2   28.2   34.1  1029.9  0.00   0.0   623    26.79    666     2.5  0.54   2.8   0.000   0.243   28.9    28    0.00   701    1    100.0   30 
23/10/19  4:00p   30.3   30.3   30.0    22    6.2   9.7   SSW  4.83  19.3   SSW   30.3   28.6   28.6   34.3  1029.7  0.00   0.0   530    22.79    575     1.8  0.39   2.1   0.000   0.249   29.2    29    0.51   699    1    100.0   30 
23/10/19  4:30p   29.5   30.3   29.5    23    6.2   9.7   SSW  4.83  20.9   SSW   29.5   27.9   27.9   33.3  1029.6  0.00   0.0   430    18.49    482     1.3  0.28   1.5   0.000   0.233   29.1    29    0.00   702    1    100.0   30 
23/10/19  5:00p   29.1   29.5   29.1    24    6.5   9.7   SSW  4.83  22.5   SSW   29.1   27.7   27.7   32.3  1029.5  0.00   0.0   327    14.06    380     0.8  0.17   1.0   0.000   0.225   28.7    29    0.38   702    1    100.0   30 
23/10/19  5:30p   28.4   29.1   28.3    25    6.5   8.0   SSW  4.02  22.5   SSW   28.4   26.9   26.9   30.1  1029.6  0.00   0.0   218     9.38    271     0.4  0.09   0.7   0.000   0.209   28.3    29    0.00   700    1    100.0   30 
23/10/19  6:00p   27.4   28.4   27.4    27    6.7   3.2   SSW  1.61  14.5   SSW   27.4   26.1   26.1   25.3  1029.8  0.00   0.0    90     3.87    156     0.0  0.00   0.0   0.000   0.189   28.2    29    0.20   700    1    100.0   30 
23/10/19  6:30p   25.1   27.3   25.1    31    6.7   0.0   ---  0.00   0.0   ---   25.1   24.4   24.4   22.7  1030.0  0.00   0.0    18     0.77     26     0.0  0.00   0.0   0.000   0.140   28.1    29    0.00   702    1    100.0   30 
23/10/19  7:00p   22.6   25.0   22.6    39    7.9   0.0   ---  0.00   0.0   ---   22.6   21.7   21.7   19.8  1030.4  0.00   0.0     3     0.13     11     0.0  0.00   0.0   0.000   0.088   28.1    30    0.03   700    1    100.0   30 
23/10/19  7:30p   20.1   22.6   20.1    47    8.4   0.0   ---  0.00   0.0   ---   20.1   19.2   19.2   17.4  1030.8  0.00   0.0     0     0.00      0     0.0  0.00   0.0   0.000   0.037   28.1    30    0.00   702    1    100.0   30 
23/10/19  8:00p   18.3   20.1   18.3    54    8.9   0.0   ---  0.00   0.0   ---   18.3   17.6   17.6   15.8  1031.1  0.00   0.0     0     0.00      0     0.0  0.00   0.0   0.000   0.000   28.1    30    0.05   702    1    100.0   30 
23/10/19  8:30p   17.2   18.3   17.2    60    9.4   0.0   ---  0.00   0.0   ---   17.2   16.6   16.6   14.8  1031.4  0.00   0.0     0     0.00      0     0.0  0.00   0.0   0.023   0.000   28.1    30    0.00   702    1    100.0   30 
23/10/19  9:00p   15.8   17.2   15.8    63    8.8   0.0   ---  0.00   0.0   ---   15.8   15.3   15.3   13.4  1031.3  0.00   0.0     0     0.00      0     0.0  0.00   0.0   0.052   0.000   28.1    30    0.03   699    1    100.0   30 
23/10/19  9:30p   14.7   15.8   14.7    68    8.8   0.0   ---  0.00   0.0   ---   14.7   14.2   14.2   12.3  1031.3  0.00   0.0     0     0.00      0     0.0  0.00   0.0   0.076   0.000   28.1    30    0.00   702    1    100.0   30 
23/10/19 10:00p   14.2   14.7   14.1    70    8.8   0.0   ---  0.00   0.0   ---   14.2   13.7   13.7   11.9  1031.2  0.00   0.0     0     0.00      0     0.0  0.00   0.0   0.087   0.000   28.1    30    0.03   698    1    100.0   30 
23/10/19 10:30p   13.8   14.2   13.8    71    8.6   0.0   ---  0.00   0.0   ---   13.8   13.4   13.4   11.6  1031.0  0.00   0.0     0     0.00      0     0.0  0.00   0.0   0.095   0.000   28.2    30    0.00   700    1    100.0   30 
23/10/19 11:00p   13.1   13.8   13.1    74    8.5   0.0   ---  0.00   0.0   ---   13.1   12.7   12.7   10.9  1030.9  0.00   0.0     0     0.00      0     0.0  0.00   0.0   0.110   0.000   28.1    30    0.03   664    1     97.1   30 
23/10/19 11:30p   12.2   13.1   12.2    78    8.4   0.0   ---  0.00   0.0   ---   12.2   11.9   11.9   10.1  1030.6  0.00   0.0     0     0.00      0     0.0  0.00   0.0   0.128   0.000   28.2    30    0.00   701    1    100.0   30 
24/10/19 12:00a   11.2   12.2   11.2    80    7.9   0.0   ---  0.00   0.0   ---   11.2   11.1   11.1    9.2  1030.3  0.00   0.0     0     0.00      0     0.0  0.00   0.0   0.148   0.000   28.2    30    0.03   700    1    100.0   30 
24/10/19 12:30a   11.3   11.3   11.2    82    8.3   0.0   ---  0.00   0.0   ---   11.3   11.2   11.2    9.3  1029.9  0.00   0.0     0     0.00      0     0.0  0.00   0.0   0.147   0.000   28.1    31    0.00   701    1    100.0   30 
24/10/19  1:00a   10.8   11.3   10.8    83    8.1   0.0   ---  0.00   0.0   ---   10.8   10.8   10.8    8.9  1029.5  0.00   0.0     0     0.00      0     0.0  0.00   0.0   0.156   0.000   28.1    31    0.03   701    1    100.0   30 
24/10/19  1:30a   10.7   10.8   10.6    84    8.1   0.0   ---  0.00   0.0   ---   10.7   10.7   10.7    8.8  1029.0  0.00   0.0     0     0.00      0     0.0  0.00   0.0   0.160   0.000   27.9    31    0.00   702    1    100.0   30 
24/10/19  2:00a   10.4   10.7   10.3    84    7.8   0.0   ---  0.00   0.0   ---   10.4   10.4   10.4    8.5  1028.8  0.00   0.0     0     0.00      0     0.0  0.00   0.0   0.166   0.000   27.8    31    0.00   702    1    100.0   30 
24/10/19  2:30a    9.8   10.4    9.8    86    7.5   0.0   ---  0.00   0.0   ---    9.8    9.8    9.8    7.9  1028.7  0.00   0.0     0     0.00      0     0.0  0.00   0.0   0.178   0.000   27.8    31    0.00   701    1    100.0   30 
24/10/19  3:00a    9.7    9.8    9.7    86    7.5   0.0   ---  0.00   0.0   ---    9.7    9.8    9.8    7.9  1028.4  0.00   0.0     0     0.00      0     0.0  0.00   0.0   0.179   0.000   27.7    31    0.00   696    1    100.0   30 
24/10/19  3:30a    9.4    9.7    9.4    86    7.2   0.0   ---  0.00   0.0   ---    9.4    9.5    9.5    7.6  1028.2  0.00   0.0     0     0.00      0     0.0  0.00   0.0   0.185   0.000   27.6    31    0.00   701    1    100.0   30 
24/10/19  4:00a    9.2    9.5    9.2    86    7.0   0.0   ---  0.00   0.0   ---    9.2    9.3    9.3    7.3  1028.1  0.00   0.0     0     0.00      0     0.0  0.00   0.0   0.190   0.000   27.4    31    0.00   700    1    100.0   30 
24/10/19  4:30a    8.8    9.2    8.8    87    6.8   0.0   ---  0.00   0.0   ---    8.8    8.9    8.9    6.9  1028.1  0.00   0.0     0     0.00      0     0.0  0.00   0.0   0.198   0.000   27.2    31    0.00   700    1    100.0   30 
24/10/19  5:00a    8.5    8.8    8.5    88    6.6   0.0   ---  0.00   0.0   ---    8.5    8.6    8.6    6.6  1028.0  0.00   0.0     0     0.00      0     0.0  0.00   0.0   0.205   0.000   27.1    31    0.00   701    1    100.0   30 
24/10/19  5:30a    8.2    8.5    8.2    88    6.4   0.0   ---  0.00   0.0   ---    8.2    8.3    8.3    6.3  1028.0  0.00   0.0     2     0.09      9     0.0  0.00   0.0   0.211   0.000   27.0    31    0.00   701    1    100.0   30 
24/10/19  6:00a    8.6    8.6    8.2    89    6.8   0.0   ---  0.00   0.0   ---    8.6    8.7    8.7    6.9  1028.1  0.00   0.0    18     0.77     28     0.0  0.00   0.0   0.204   0.000   26.9    31    0.00   701    1    100.0   30 
24/10/19  6:30a    9.8    9.8    8.6    88    7.9   0.0   ---  0.00   0.0   ---    9.8    9.9    9.9    8.8  1028.3  0.00   0.0    62     2.67    165     0.0  0.00   0.0   0.177   0.000   26.8    31    0.00   701    1    100.0   30 
24/10/19  7:00a   12.7   12.7    9.9    78    9.0   0.0   ---  0.00   0.0   ---   12.7   12.5   12.5   13.4  1028.3  0.00   0.0   227     9.76    281     0.0  0.00   0.0   0.117   0.000   26.8    31    0.08   701    1    100.0   30 
24/10/19  7:30a   16.6   16.6   12.7    65    9.9   0.0   ---  0.00   0.0   ---   16.6   16.2   16.2   22.2  1028.2  0.00   0.0   339    14.58    392     0.6  0.13   0.9   0.037   0.000   26.2    31    0.00   701    1    100.0   30 
24/10/19  8:00a   19.2   19.2   16.6    61   11.5   0.0   ---  0.00   0.0   ---   19.2   18.9   18.9   26.1  1027.9  0.00   0.0   446    19.18    496     1.1  0.24   1.4   0.000   0.019   26.0    33    0.20   700    1    100.0   30 
24/10/19  8:30a   22.2   22.2   19.3    54   12.4   0.0   SSW  0.00   8.0   SSW   22.2   21.8   21.8   29.4  1027.7  0.00   0.0   549    23.61    596     1.7  0.36   2.0   0.000   0.080   26.0    35    0.00   702    1    100.0   30 
24/10/19  9:00a   25.3   25.3   22.2    45   12.5   0.0   ---  0.00   0.0   ---   25.3   25.1   25.1   32.7  1027.5  0.00   0.0   644    27.70    687     2.4  0.51   2.8   0.000   0.146   26.1    36    0.36   700    1    100.0   30 
24/10/19  9:30a   29.5   29.5   25.4    26    8.0   8.0   NNW  4.02  35.4    NW   29.5   28.2   28.2   35.4  1027.4  0.00   0.0   733    31.52    768     3.2  0.69   3.6   0.000   0.233   26.2    37    0.00   699    1    100.0   30 
24/10/19 10:00a   30.2   30.2   29.5    24    7.4  12.9   NNW  6.44  33.8   NNW   30.2   28.7   28.5   35.1  1027.1  0.00   0.0   805    34.62    835     4.0  0.86   4.3   0.000   0.247   26.5    38    0.63   701    1    100.0   30 
24/10/19 10:30a   31.0   31.0   30.1    21    6.1  14.5   NNW  7.24  53.1    NE   31.0   29.1   28.8   34.9  1026.9  0.00   0.0   868    37.33    895     4.7  1.01   5.0   0.000   0.264   26.6    40    0.00   702    1    100.0   30 
24/10/19 11:00a   31.3   31.3   30.9    19    4.9  14.5     N  7.24  46.7    NE   31.3   29.2   29.0   34.9  1026.5  0.00   0.0   917    39.44    937     5.3  1.14   5.5   0.000   0.271   27.1    36    0.81   699    1    100.0   30 
24/10/19 11:30a   31.6   31.6   31.2    19    5.1  17.7   NNW  8.85  56.3    NE   31.6   29.4   29.0   34.4  1026.0  0.00   0.0   949    40.81    962     5.7  1.22   5.9   0.000   0.275   28.6    35    0.00   701    1    100.0   30 
24/10/19 12:00p   31.7   31.9   31.6    20    6.0  19.3   NNE  9.66  62.8    NE   31.7   29.6   29.2   34.3  1025.3  0.00   0.0   964    41.46    967     6.0  1.29   6.0   0.000   0.279   29.3    32    0.91   703    1    100.0   30 
24/10/19 12:30p   32.2   32.2   31.7    20    6.4  19.3   NNE  9.66  53.1   NNE   32.2   30.3   29.9   34.9  1024.8  0.00   0.0   960    41.29    967     6.0  1.29   6.0   0.000   0.288   28.3    34    0.00   701    1    100.0   30 
24/10/19  1:00p   32.7   32.8   32.1    19    6.1  17.7     N  8.85  57.9   ENE   32.7   30.8   30.5   35.6  1024.3  0.00   0.0   945    40.64    958     5.8  1.24   6.0   0.000   0.300   27.9    36    0.91   702    1    100.0   30 
24/10/19  1:30p   32.8   32.8   32.4    18    5.4  20.9   NNE 10.46  49.9    NE   32.8   30.8   30.5   35.3  1023.8  0.00   0.0   913    39.26    930     5.4  1.16   5.7   0.000   0.302   29.2    38    0.00   701    1    100.0   30 
24/10/19  2:00p   32.9   33.2   32.7    18    5.5  19.3   NNE  9.66  56.3    NE   32.9   30.9   30.6   35.6  1023.4  0.00   0.0   864    37.16    893     4.9  1.05   5.2   0.000   0.304   29.7    39    0.91   701    1    100.0   30